<?xml version="1.0" encoding="UTF-8" standalone="no" ?>
<gpx xmlns="http://www.topografix.com/GPX/1/1" xmlns:xsi="http://www.w3.org/2001/XMLSchema-instance" xsi:schemaLocation="http://www.topografix.com/GPX/1/1 http://www.topografix.com/GPX/1/1/gpx.xsd" version="1.1" creator="VisuGPX - https://www.visugpx.com">
  <metadata>
    <name>Islande piste F-208 nord</name>
    <desc><![CDATA[Islande piste F-208 nord vers le Landmannalaugar]]></desc>
  </metadata>
  <trk>
    <name><![CDATA[2015-07-08 11:53:30]]></name>
    <trkseg>
      <trkpt lat="64.19741" lon="-19.28627">
        <ele>364.12</ele>
        <time>2015-07-08T09:36:25Z</time>
      </trkpt>
      <trkpt lat="64.19741" lon="-19.2863">
        <ele>364.12</ele>
        <time>2015-07-08T09:36:26Z</time>
      </trkpt>
      <trkpt lat="64.19742" lon="-19.28626">
        <ele>363.93</ele>
        <time>2015-07-08T09:36:47Z</time>
      </trkpt>
      <trkpt lat="64.19743" lon="-19.28625">
        <ele>363.93</ele>
        <time>2015-07-08T09:36:48Z</time>
      </trkpt>
      <trkpt lat="64.19747" lon="-19.28595">
        <ele>364.02</ele>
        <time>2015-07-08T09:36:52Z</time>
      </trkpt>
      <trkpt lat="64.19756" lon="-19.28413">
        <ele>365.83</ele>
        <time>2015-07-08T09:37:04Z</time>
      </trkpt>
      <trkpt lat="64.19768" lon="-19.28184">
        <ele>366.58</ele>
        <time>2015-07-08T09:37:15Z</time>
      </trkpt>
      <trkpt lat="64.19787" lon="-19.27833">
        <ele>366.65</ele>
        <time>2015-07-08T09:37:27Z</time>
      </trkpt>
      <trkpt lat="64.19812" lon="-19.27386">
        <ele>367.69</ele>
        <time>2015-07-08T09:37:41Z</time>
      </trkpt>
      <trkpt lat="64.19836" lon="-19.26963">
        <ele>370.87</ele>
        <time>2015-07-08T09:37:54Z</time>
      </trkpt>
      <trkpt lat="64.19864" lon="-19.26467">
        <ele>368.15</ele>
        <time>2015-07-08T09:38:09Z</time>
      </trkpt>
      <trkpt lat="64.19881" lon="-19.26133">
        <ele>369.07</ele>
        <time>2015-07-08T09:38:21Z</time>
      </trkpt>
      <trkpt lat="64.19894" lon="-19.25891">
        <ele>372.43</ele>
        <time>2015-07-08T09:38:30Z</time>
      </trkpt>
      <trkpt lat="64.19896" lon="-19.25843">
        <ele>373.74</ele>
        <time>2015-07-08T09:38:33Z</time>
      </trkpt>
      <trkpt lat="64.19896" lon="-19.25824">
        <ele>375.03</ele>
        <time>2015-07-08T09:38:40Z</time>
      </trkpt>
      <trkpt lat="64.19896" lon="-19.25826">
        <ele>375.05</ele>
        <time>2015-07-08T09:38:41Z</time>
      </trkpt>
      <trkpt lat="64.19895" lon="-19.25838">
        <ele>375.07</ele>
        <time>2015-07-08T09:38:44Z</time>
      </trkpt>
      <trkpt lat="64.19892" lon="-19.2589">
        <ele>374.39</ele>
        <time>2015-07-08T09:38:57Z</time>
      </trkpt>
      <trkpt lat="64.19893" lon="-19.25891">
        <ele>374.03</ele>
        <time>2015-07-08T09:39:00Z</time>
      </trkpt>
      <trkpt lat="64.19899" lon="-19.25897">
        <ele>374.09</ele>
        <time>2015-07-08T09:39:03Z</time>
      </trkpt>
      <trkpt lat="64.19928" lon="-19.2592">
        <ele>374.65</ele>
        <time>2015-07-08T09:39:08Z</time>
      </trkpt>
      <trkpt lat="64.20057" lon="-19.25955">
        <ele>377.47</ele>
        <time>2015-07-08T09:39:19Z</time>
      </trkpt>
      <trkpt lat="64.2021" lon="-19.25934">
        <ele>380.09</ele>
        <time>2015-07-08T09:39:31Z</time>
      </trkpt>
      <trkpt lat="64.20374" lon="-19.25826">
        <ele>380.16</ele>
        <time>2015-07-08T09:39:42Z</time>
      </trkpt>
      <trkpt lat="64.20577" lon="-19.25707">
        <ele>376.9</ele>
        <time>2015-07-08T09:39:55Z</time>
      </trkpt>
      <trkpt lat="64.20679" lon="-19.25688">
        <ele>373.5</ele>
        <time>2015-07-08T09:40:02Z</time>
      </trkpt>
      <trkpt lat="64.20753" lon="-19.25696">
        <ele>369.75</ele>
        <time>2015-07-08T09:40:07Z</time>
      </trkpt>
      <trkpt lat="64.20812" lon="-19.25714">
        <ele>366.39</ele>
        <time>2015-07-08T09:40:11Z</time>
      </trkpt>
      <trkpt lat="64.20857" lon="-19.25731">
        <ele>362.47</ele>
        <time>2015-07-08T09:40:14Z</time>
      </trkpt>
      <trkpt lat="64.20932" lon="-19.25763">
        <ele>359.15</ele>
        <time>2015-07-08T09:40:19Z</time>
      </trkpt>
      <trkpt lat="64.21049" lon="-19.25814">
        <ele>355.9</ele>
        <time>2015-07-08T09:40:27Z</time>
      </trkpt>
      <trkpt lat="64.21182" lon="-19.25838">
        <ele>353.67</ele>
        <time>2015-07-08T09:40:37Z</time>
      </trkpt>
      <trkpt lat="64.21291" lon="-19.25748">
        <ele>355.2</ele>
        <time>2015-07-08T09:40:45Z</time>
      </trkpt>
      <trkpt lat="64.21367" lon="-19.25578">
        <ele>355.11</ele>
        <time>2015-07-08T09:40:52Z</time>
      </trkpt>
      <trkpt lat="64.21418" lon="-19.25315">
        <ele>354.57</ele>
        <time>2015-07-08T09:41:00Z</time>
      </trkpt>
      <trkpt lat="64.21444" lon="-19.25153">
        <ele>357.74</ele>
        <time>2015-07-08T09:41:05Z</time>
      </trkpt>
      <trkpt lat="64.21458" lon="-19.25059">
        <ele>361.06</ele>
        <time>2015-07-08T09:41:08Z</time>
      </trkpt>
      <trkpt lat="64.21473" lon="-19.24965">
        <ele>364.31</ele>
        <time>2015-07-08T09:41:11Z</time>
      </trkpt>
      <trkpt lat="64.21488" lon="-19.2487">
        <ele>368.22</ele>
        <time>2015-07-08T09:41:14Z</time>
      </trkpt>
      <trkpt lat="64.21504" lon="-19.24775">
        <ele>371.81</ele>
        <time>2015-07-08T09:41:17Z</time>
      </trkpt>
      <trkpt lat="64.21531" lon="-19.24649">
        <ele>375.37</ele>
        <time>2015-07-08T09:41:21Z</time>
      </trkpt>
      <trkpt lat="64.21571" lon="-19.24505">
        <ele>378.66</ele>
        <time>2015-07-08T09:41:26Z</time>
      </trkpt>
      <trkpt lat="64.21635" lon="-19.24221">
        <ele>375.42</ele>
        <time>2015-07-08T09:41:35Z</time>
      </trkpt>
      <trkpt lat="64.21655" lon="-19.23975">
        <ele>372.32</ele>
        <time>2015-07-08T09:41:42Z</time>
      </trkpt>
      <trkpt lat="64.21661" lon="-19.23775">
        <ele>368.87</ele>
        <time>2015-07-08T09:41:47Z</time>
      </trkpt>
      <trkpt lat="64.2166" lon="-19.23574">
        <ele>365.11</ele>
        <time>2015-07-08T09:41:52Z</time>
      </trkpt>
      <trkpt lat="64.21658" lon="-19.23534">
        <ele>365.11</ele>
        <time>2015-07-08T09:41:53Z</time>
      </trkpt>
      <trkpt lat="64.2164" lon="-19.23339">
        <ele>361.92</ele>
        <time>2015-07-08T09:41:58Z</time>
      </trkpt>
      <trkpt lat="64.21559" lon="-19.22567">
        <ele>363.48</ele>
        <time>2015-07-08T09:42:17Z</time>
      </trkpt>
      <trkpt lat="64.21487" lon="-19.21862">
        <ele>364.77</ele>
        <time>2015-07-08T09:42:35Z</time>
      </trkpt>
      <trkpt lat="64.21457" lon="-19.21344">
        <ele>366.09</ele>
        <time>2015-07-08T09:42:48Z</time>
      </trkpt>
      <trkpt lat="64.21481" lon="-19.20863">
        <ele>368.8</ele>
        <time>2015-07-08T09:43:00Z</time>
      </trkpt>
      <trkpt lat="64.2149" lon="-19.2055">
        <ele>372.33</ele>
        <time>2015-07-08T09:43:08Z</time>
      </trkpt>
      <trkpt lat="64.21485" lon="-19.20472">
        <ele>372.98</ele>
        <time>2015-07-08T09:43:10Z</time>
      </trkpt>
      <trkpt lat="64.21427" lon="-19.20031">
        <ele>374.63</ele>
        <time>2015-07-08T09:43:21Z</time>
      </trkpt>
      <trkpt lat="64.21389" lon="-19.19769">
        <ele>377.64</ele>
        <time>2015-07-08T09:43:28Z</time>
      </trkpt>
      <trkpt lat="64.21368" lon="-19.19626">
        <ele>381.55</ele>
        <time>2015-07-08T09:43:32Z</time>
      </trkpt>
      <trkpt lat="64.21283" lon="-19.19015">
        <ele>384.76</ele>
        <time>2015-07-08T09:43:48Z</time>
      </trkpt>
      <trkpt lat="64.2125" lon="-19.18775">
        <ele>388.29</ele>
        <time>2015-07-08T09:43:54Z</time>
      </trkpt>
      <trkpt lat="64.21234" lon="-19.18658">
        <ele>391.14</ele>
        <time>2015-07-08T09:43:57Z</time>
      </trkpt>
      <trkpt lat="64.21222" lon="-19.18581">
        <ele>394.55</ele>
        <time>2015-07-08T09:43:59Z</time>
      </trkpt>
      <trkpt lat="64.21207" lon="-19.18468">
        <ele>398.28</ele>
        <time>2015-07-08T09:44:02Z</time>
      </trkpt>
      <trkpt lat="64.21192" lon="-19.18355">
        <ele>401.4</ele>
        <time>2015-07-08T09:44:05Z</time>
      </trkpt>
      <trkpt lat="64.21177" lon="-19.18242">
        <ele>404.88</ele>
        <time>2015-07-08T09:44:08Z</time>
      </trkpt>
      <trkpt lat="64.21164" lon="-19.18128">
        <ele>408.59</ele>
        <time>2015-07-08T09:44:11Z</time>
      </trkpt>
      <trkpt lat="64.21156" lon="-19.18016">
        <ele>412.16</ele>
        <time>2015-07-08T09:44:14Z</time>
      </trkpt>
      <trkpt lat="64.21153" lon="-19.17907">
        <ele>415.89</ele>
        <time>2015-07-08T09:44:17Z</time>
      </trkpt>
      <trkpt lat="64.21153" lon="-19.17835">
        <ele>418.93</ele>
        <time>2015-07-08T09:44:19Z</time>
      </trkpt>
      <trkpt lat="64.21154" lon="-19.1776">
        <ele>422.19</ele>
        <time>2015-07-08T09:44:21Z</time>
      </trkpt>
      <trkpt lat="64.21154" lon="-19.17723">
        <ele>425.35</ele>
        <time>2015-07-08T09:44:22Z</time>
      </trkpt>
      <trkpt lat="64.21155" lon="-19.17684">
        <ele>425.35</ele>
        <time>2015-07-08T09:44:23Z</time>
      </trkpt>
      <trkpt lat="64.21156" lon="-19.17606">
        <ele>429.31</ele>
        <time>2015-07-08T09:44:25Z</time>
      </trkpt>
      <trkpt lat="64.21158" lon="-19.17445">
        <ele>432.88</ele>
        <time>2015-07-08T09:44:29Z</time>
      </trkpt>
      <trkpt lat="64.21147" lon="-19.16994">
        <ele>431.42</ele>
        <time>2015-07-08T09:44:41Z</time>
      </trkpt>
      <trkpt lat="64.21125" lon="-19.16633">
        <ele>432.63</ele>
        <time>2015-07-08T09:44:51Z</time>
      </trkpt>
      <trkpt lat="64.21132" lon="-19.16499">
        <ele>435.65</ele>
        <time>2015-07-08T09:44:55Z</time>
      </trkpt>
      <trkpt lat="64.21147" lon="-19.16376">
        <ele>438.66</ele>
        <time>2015-07-08T09:44:59Z</time>
      </trkpt>
      <trkpt lat="64.21172" lon="-19.1622">
        <ele>442.15</ele>
        <time>2015-07-08T09:45:04Z</time>
      </trkpt>
      <trkpt lat="64.21191" lon="-19.15935">
        <ele>443.49</ele>
        <time>2015-07-08T09:45:12Z</time>
      </trkpt>
      <trkpt lat="64.21158" lon="-19.15614">
        <ele>446.62</ele>
        <time>2015-07-08T09:45:21Z</time>
      </trkpt>
      <trkpt lat="64.21088" lon="-19.15386">
        <ele>447.59</ele>
        <time>2015-07-08T09:45:29Z</time>
      </trkpt>
      <trkpt lat="64.20988" lon="-19.15217">
        <ele>447.83</ele>
        <time>2015-07-08T09:45:38Z</time>
      </trkpt>
      <trkpt lat="64.20972" lon="-19.15196">
        <ele>447.35</ele>
        <time>2015-07-08T09:45:40Z</time>
      </trkpt>
      <trkpt lat="64.20944" lon="-19.1523">
        <ele>445.27</ele>
        <time>2015-07-08T09:45:45Z</time>
      </trkpt>
      <trkpt lat="64.20867" lon="-19.1549">
        <ele>447.15</ele>
        <time>2015-07-08T09:45:57Z</time>
      </trkpt>
      <trkpt lat="64.20795" lon="-19.15654">
        <ele>444.09</ele>
        <time>2015-07-08T09:46:07Z</time>
      </trkpt>
      <trkpt lat="64.2079" lon="-19.15664">
        <ele>440.86</ele>
        <time>2015-07-08T09:46:12Z</time>
      </trkpt>
      <trkpt lat="64.20792" lon="-19.15659">
        <ele>438.76</ele>
        <time>2015-07-08T09:46:48Z</time>
      </trkpt>
      <trkpt lat="64.20792" lon="-19.15657">
        <ele>438.9</ele>
        <time>2015-07-08T09:47:40Z</time>
      </trkpt>
      <trkpt lat="64.20793" lon="-19.15654">
        <ele>438.76</ele>
        <time>2015-07-08T09:48:36Z</time>
      </trkpt>
      <trkpt lat="64.20795" lon="-19.15653">
        <ele>439.13</ele>
        <time>2015-07-08T09:49:37Z</time>
      </trkpt>
      <trkpt lat="64.20795" lon="-19.15654">
        <ele>439.05</ele>
        <time>2015-07-08T09:50:30Z</time>
      </trkpt>
      <trkpt lat="64.20795" lon="-19.15654">
        <ele>439.28</ele>
        <time>2015-07-08T09:51:22Z</time>
      </trkpt>
      <trkpt lat="64.20796" lon="-19.15657">
        <ele>439.37</ele>
        <time>2015-07-08T09:52:03Z</time>
      </trkpt>
      <trkpt lat="64.20795" lon="-19.15659">
        <ele>439.15</ele>
        <time>2015-07-08T09:52:36Z</time>
      </trkpt>
      <trkpt lat="64.20784" lon="-19.15665">
        <ele>439.17</ele>
        <time>2015-07-08T09:52:42Z</time>
      </trkpt>
      <trkpt lat="64.20725" lon="-19.15742">
        <ele>441.21</ele>
        <time>2015-07-08T09:52:51Z</time>
      </trkpt>
      <trkpt lat="64.20632" lon="-19.15814">
        <ele>441.57</ele>
        <time>2015-07-08T09:53:00Z</time>
      </trkpt>
      <trkpt lat="64.20514" lon="-19.15836">
        <ele>438.48</ele>
        <time>2015-07-08T09:53:11Z</time>
      </trkpt>
      <trkpt lat="64.20407" lon="-19.15796">
        <ele>438.18</ele>
        <time>2015-07-08T09:53:22Z</time>
      </trkpt>
      <trkpt lat="64.20303" lon="-19.15691">
        <ele>440.64</ele>
        <time>2015-07-08T09:53:32Z</time>
      </trkpt>
      <trkpt lat="64.20199" lon="-19.15519">
        <ele>439.35</ele>
        <time>2015-07-08T09:53:42Z</time>
      </trkpt>
      <trkpt lat="64.2009" lon="-19.15328">
        <ele>436.2</ele>
        <time>2015-07-08T09:53:51Z</time>
      </trkpt>
      <trkpt lat="64.19921" lon="-19.15035">
        <ele>435.46</ele>
        <time>2015-07-08T09:54:05Z</time>
      </trkpt>
      <trkpt lat="64.19822" lon="-19.14863">
        <ele>435.51</ele>
        <time>2015-07-08T09:54:15Z</time>
      </trkpt>
      <trkpt lat="64.19774" lon="-19.1478">
        <ele>435.09</ele>
        <time>2015-07-08T09:54:23Z</time>
      </trkpt>
      <trkpt lat="64.19776" lon="-19.14785">
        <ele>434.15</ele>
        <time>2015-07-08T09:54:35Z</time>
      </trkpt>
      <trkpt lat="64.1978" lon="-19.1479">
        <ele>433.98</ele>
        <time>2015-07-08T09:55:08Z</time>
      </trkpt>
      <trkpt lat="64.19781" lon="-19.14792">
        <ele>433.73</ele>
        <time>2015-07-08T09:55:38Z</time>
      </trkpt>
      <trkpt lat="64.1978" lon="-19.1479">
        <ele>433.84</ele>
        <time>2015-07-08T09:56:04Z</time>
      </trkpt>
      <trkpt lat="64.19772" lon="-19.14777">
        <ele>433.82</ele>
        <time>2015-07-08T09:56:07Z</time>
      </trkpt>
      <trkpt lat="64.19706" lon="-19.14661">
        <ele>434.16</ele>
        <time>2015-07-08T09:56:17Z</time>
      </trkpt>
      <trkpt lat="64.19609" lon="-19.14493">
        <ele>434.89</ele>
        <time>2015-07-08T09:56:26Z</time>
      </trkpt>
      <trkpt lat="64.19437" lon="-19.14224">
        <ele>436.72</ele>
        <time>2015-07-08T09:56:39Z</time>
      </trkpt>
      <trkpt lat="64.19313" lon="-19.14131">
        <ele>439.97</ele>
        <time>2015-07-08T09:56:47Z</time>
      </trkpt>
      <trkpt lat="64.19171" lon="-19.14123">
        <ele>443.25</ele>
        <time>2015-07-08T09:56:55Z</time>
      </trkpt>
      <trkpt lat="64.19014" lon="-19.14229">
        <ele>445.68</ele>
        <time>2015-07-08T09:57:04Z</time>
      </trkpt>
      <trkpt lat="64.18781" lon="-19.1445">
        <ele>443.92</ele>
        <time>2015-07-08T09:57:18Z</time>
      </trkpt>
      <trkpt lat="64.18629" lon="-19.14575">
        <ele>442.11</ele>
        <time>2015-07-08T09:57:28Z</time>
      </trkpt>
      <trkpt lat="64.18522" lon="-19.14524">
        <ele>441</ele>
        <time>2015-07-08T09:57:35Z</time>
      </trkpt>
      <trkpt lat="64.18471" lon="-19.14426">
        <ele>440.95</ele>
        <time>2015-07-08T09:57:39Z</time>
      </trkpt>
      <trkpt lat="64.18333" lon="-19.14032">
        <ele>441.92</ele>
        <time>2015-07-08T09:57:52Z</time>
      </trkpt>
      <trkpt lat="64.1819" lon="-19.13627">
        <ele>445.45</ele>
        <time>2015-07-08T09:58:05Z</time>
      </trkpt>
      <trkpt lat="64.18149" lon="-19.1351">
        <ele>447.36</ele>
        <time>2015-07-08T09:58:09Z</time>
      </trkpt>
      <trkpt lat="64.18078" lon="-19.13312">
        <ele>445.69</ele>
        <time>2015-07-08T09:58:15Z</time>
      </trkpt>
      <trkpt lat="64.17967" lon="-19.13009">
        <ele>449.73</ele>
        <time>2015-07-08T09:58:25Z</time>
      </trkpt>
      <trkpt lat="64.17937" lon="-19.12926">
        <ele>453.22</ele>
        <time>2015-07-08T09:58:28Z</time>
      </trkpt>
      <trkpt lat="64.17909" lon="-19.12849">
        <ele>456.28</ele>
        <time>2015-07-08T09:58:31Z</time>
      </trkpt>
      <trkpt lat="64.17884" lon="-19.12779">
        <ele>459.73</ele>
        <time>2015-07-08T09:58:34Z</time>
      </trkpt>
      <trkpt lat="64.17862" lon="-19.12719">
        <ele>463.4</ele>
        <time>2015-07-08T09:58:37Z</time>
      </trkpt>
      <trkpt lat="64.17837" lon="-19.12676">
        <ele>467.49</ele>
        <time>2015-07-08T09:58:41Z</time>
      </trkpt>
      <trkpt lat="64.17833" lon="-19.12674">
        <ele>469.56</ele>
        <time>2015-07-08T09:58:51Z</time>
      </trkpt>
      <trkpt lat="64.17833" lon="-19.12675">
        <ele>469.79</ele>
        <time>2015-07-08T09:58:55Z</time>
      </trkpt>
      <trkpt lat="64.17823" lon="-19.12674">
        <ele>469.99</ele>
        <time>2015-07-08T09:59:03Z</time>
      </trkpt>
      <trkpt lat="64.17823" lon="-19.12678">
        <ele>470.05</ele>
        <time>2015-07-08T09:59:09Z</time>
      </trkpt>
      <trkpt lat="64.17817" lon="-19.12679">
        <ele>470.06</ele>
        <time>2015-07-08T09:59:11Z</time>
      </trkpt>
      <trkpt lat="64.17801" lon="-19.12693">
        <ele>470.3</ele>
        <time>2015-07-08T09:59:14Z</time>
      </trkpt>
      <trkpt lat="64.17724" lon="-19.12817">
        <ele>473.19</ele>
        <time>2015-07-08T09:59:23Z</time>
      </trkpt>
      <trkpt lat="64.17659" lon="-19.12931">
        <ele>476.45</ele>
        <time>2015-07-08T09:59:30Z</time>
      </trkpt>
      <trkpt lat="64.17569" lon="-19.13091">
        <ele>476.82</ele>
        <time>2015-07-08T09:59:40Z</time>
      </trkpt>
      <trkpt lat="64.17549" lon="-19.13116">
        <ele>473.79</ele>
        <time>2015-07-08T09:59:47Z</time>
      </trkpt>
      <trkpt lat="64.1755" lon="-19.13114">
        <ele>471.18</ele>
        <time>2015-07-08T10:00:12Z</time>
      </trkpt>
      <trkpt lat="64.17549" lon="-19.13115">
        <ele>471.33</ele>
        <time>2015-07-08T10:00:24Z</time>
      </trkpt>
      <trkpt lat="64.17505" lon="-19.1316">
        <ele>470.96</ele>
        <time>2015-07-08T10:00:31Z</time>
      </trkpt>
      <trkpt lat="64.17425" lon="-19.13241">
        <ele>467.63</ele>
        <time>2015-07-08T10:00:39Z</time>
      </trkpt>
      <trkpt lat="64.17381" lon="-19.13309">
        <ele>464.06</ele>
        <time>2015-07-08T10:00:43Z</time>
      </trkpt>
      <trkpt lat="64.17347" lon="-19.13362">
        <ele>460.36</ele>
        <time>2015-07-08T10:00:46Z</time>
      </trkpt>
      <trkpt lat="64.17321" lon="-19.13402">
        <ele>456.44</ele>
        <time>2015-07-08T10:00:49Z</time>
      </trkpt>
      <trkpt lat="64.17305" lon="-19.13428">
        <ele>453.18</ele>
        <time>2015-07-08T10:00:52Z</time>
      </trkpt>
      <trkpt lat="64.17273" lon="-19.1349">
        <ele>449.66</ele>
        <time>2015-07-08T10:00:58Z</time>
      </trkpt>
      <trkpt lat="64.17264" lon="-19.13508">
        <ele>449.06</ele>
        <time>2015-07-08T10:01:00Z</time>
      </trkpt>
      <trkpt lat="64.17215" lon="-19.13685">
        <ele>447.64</ele>
        <time>2015-07-08T10:01:11Z</time>
      </trkpt>
      <trkpt lat="64.17157" lon="-19.13915">
        <ele>450.99</ele>
        <time>2015-07-08T10:01:24Z</time>
      </trkpt>
      <trkpt lat="64.17148" lon="-19.13952">
        <ele>452.45</ele>
        <time>2015-07-08T10:01:27Z</time>
      </trkpt>
      <trkpt lat="64.17137" lon="-19.14031">
        <ele>451.96</ele>
        <time>2015-07-08T10:01:38Z</time>
      </trkpt>
      <trkpt lat="64.17112" lon="-19.14177">
        <ele>453.26</ele>
        <time>2015-07-08T10:01:47Z</time>
      </trkpt>
      <trkpt lat="64.17072" lon="-19.14395">
        <ele>456.43</ele>
        <time>2015-07-08T10:01:58Z</time>
      </trkpt>
      <trkpt lat="64.17025" lon="-19.14619">
        <ele>459.86</ele>
        <time>2015-07-08T10:02:09Z</time>
      </trkpt>
      <trkpt lat="64.16976" lon="-19.148">
        <ele>463.04</ele>
        <time>2015-07-08T10:02:18Z</time>
      </trkpt>
      <trkpt lat="64.16884" lon="-19.15058">
        <ele>466.16</ele>
        <time>2015-07-08T10:02:32Z</time>
      </trkpt>
      <trkpt lat="64.1683" lon="-19.15178">
        <ele>469.52</ele>
        <time>2015-07-08T10:02:39Z</time>
      </trkpt>
      <trkpt lat="64.16787" lon="-19.15279">
        <ele>473.05</ele>
        <time>2015-07-08T10:02:45Z</time>
      </trkpt>
      <trkpt lat="64.16754" lon="-19.15361">
        <ele>476.35</ele>
        <time>2015-07-08T10:02:50Z</time>
      </trkpt>
      <trkpt lat="64.1672" lon="-19.15445">
        <ele>478.66</ele>
        <time>2015-07-08T10:02:56Z</time>
      </trkpt>
      <trkpt lat="64.16696" lon="-19.15472">
        <ele>480.53</ele>
        <time>2015-07-08T10:03:01Z</time>
      </trkpt>
      <trkpt lat="64.16687" lon="-19.15475">
        <ele>481.68</ele>
        <time>2015-07-08T10:03:07Z</time>
      </trkpt>
      <trkpt lat="64.16682" lon="-19.15478">
        <ele>481.97</ele>
        <time>2015-07-08T10:03:10Z</time>
      </trkpt>
      <trkpt lat="64.16621" lon="-19.15508">
        <ele>481.73</ele>
        <time>2015-07-08T10:03:21Z</time>
      </trkpt>
      <trkpt lat="64.16536" lon="-19.15624">
        <ele>478.82</ele>
        <time>2015-07-08T10:03:34Z</time>
      </trkpt>
      <trkpt lat="64.16458" lon="-19.15745">
        <ele>478.64</ele>
        <time>2015-07-08T10:03:42Z</time>
      </trkpt>
      <trkpt lat="64.16425" lon="-19.15804">
        <ele>482.05</ele>
        <time>2015-07-08T10:03:47Z</time>
      </trkpt>
      <trkpt lat="64.16398" lon="-19.15856">
        <ele>485.23</ele>
        <time>2015-07-08T10:03:52Z</time>
      </trkpt>
      <trkpt lat="64.16369" lon="-19.15936">
        <ele>488.54</ele>
        <time>2015-07-08T10:03:59Z</time>
      </trkpt>
      <trkpt lat="64.16341" lon="-19.16">
        <ele>491.86</ele>
        <time>2015-07-08T10:04:05Z</time>
      </trkpt>
      <trkpt lat="64.16293" lon="-19.16116">
        <ele>495.12</ele>
        <time>2015-07-08T10:04:15Z</time>
      </trkpt>
      <trkpt lat="64.1626" lon="-19.16201">
        <ele>496.5</ele>
        <time>2015-07-08T10:04:22Z</time>
      </trkpt>
      <trkpt lat="64.16203" lon="-19.16222">
        <ele>497.82</ele>
        <time>2015-07-08T10:04:30Z</time>
      </trkpt>
      <trkpt lat="64.16161" lon="-19.16149">
        <ele>500.9</ele>
        <time>2015-07-08T10:04:37Z</time>
      </trkpt>
      <trkpt lat="64.16156" lon="-19.16076">
        <ele>504.12</ele>
        <time>2015-07-08T10:04:41Z</time>
      </trkpt>
      <trkpt lat="64.16162" lon="-19.15989">
        <ele>508.85</ele>
        <time>2015-07-08T10:04:46Z</time>
      </trkpt>
      <trkpt lat="64.16166" lon="-19.15922">
        <ele>512.38</ele>
        <time>2015-07-08T10:04:50Z</time>
      </trkpt>
      <trkpt lat="64.16164" lon="-19.15869">
        <ele>516.16</ele>
        <time>2015-07-08T10:04:53Z</time>
      </trkpt>
      <trkpt lat="64.16159" lon="-19.15804">
        <ele>519.88</ele>
        <time>2015-07-08T10:04:57Z</time>
      </trkpt>
      <trkpt lat="64.16152" lon="-19.15741">
        <ele>522.95</ele>
        <time>2015-07-08T10:05:01Z</time>
      </trkpt>
      <trkpt lat="64.16133" lon="-19.15643">
        <ele>526.08</ele>
        <time>2015-07-08T10:05:07Z</time>
      </trkpt>
      <trkpt lat="64.16129" lon="-19.15629">
        <ele>526.54</ele>
        <time>2015-07-08T10:05:08Z</time>
      </trkpt>
      <trkpt lat="64.16072" lon="-19.15568">
        <ele>530.46</ele>
        <time>2015-07-08T10:05:17Z</time>
      </trkpt>
      <trkpt lat="64.16064" lon="-19.1557">
        <ele>530.98</ele>
        <time>2015-07-08T10:05:18Z</time>
      </trkpt>
      <trkpt lat="64.16042" lon="-19.15571">
        <ele>532.98</ele>
        <time>2015-07-08T10:05:21Z</time>
      </trkpt>
      <trkpt lat="64.16024" lon="-19.15548">
        <ele>536.26</ele>
        <time>2015-07-08T10:05:24Z</time>
      </trkpt>
      <trkpt lat="64.16018" lon="-19.15536">
        <ele>536.99</ele>
        <time>2015-07-08T10:05:25Z</time>
      </trkpt>
      <trkpt lat="64.15979" lon="-19.15442">
        <ele>540.82</ele>
        <time>2015-07-08T10:05:32Z</time>
      </trkpt>
      <trkpt lat="64.15976" lon="-19.15433">
        <ele>541.51</ele>
        <time>2015-07-08T10:05:33Z</time>
      </trkpt>
      <trkpt lat="64.15965" lon="-19.15399">
        <ele>544.93</ele>
        <time>2015-07-08T10:05:37Z</time>
      </trkpt>
      <trkpt lat="64.15935" lon="-19.15362">
        <ele>549.26</ele>
        <time>2015-07-08T10:05:43Z</time>
      </trkpt>
      <trkpt lat="64.15929" lon="-19.15364">
        <ele>549.85</ele>
        <time>2015-07-08T10:05:44Z</time>
      </trkpt>
      <trkpt lat="64.15916" lon="-19.15369">
        <ele>551.73</ele>
        <time>2015-07-08T10:05:46Z</time>
      </trkpt>
      <trkpt lat="64.15883" lon="-19.15349">
        <ele>554.83</ele>
        <time>2015-07-08T10:05:51Z</time>
      </trkpt>
      <trkpt lat="64.15873" lon="-19.15318">
        <ele>556.44</ele>
        <time>2015-07-08T10:05:54Z</time>
      </trkpt>
      <trkpt lat="64.15843" lon="-19.15179">
        <ele>560.06</ele>
        <time>2015-07-08T10:06:06Z</time>
      </trkpt>
      <trkpt lat="64.15828" lon="-19.14994">
        <ele>563.19</ele>
        <time>2015-07-08T10:06:20Z</time>
      </trkpt>
      <trkpt lat="64.15817" lon="-19.14832">
        <ele>563.42</ele>
        <time>2015-07-08T10:06:34Z</time>
      </trkpt>
      <trkpt lat="64.15803" lon="-19.14753">
        <ele>563.74</ele>
        <time>2015-07-08T10:06:45Z</time>
      </trkpt>
      <trkpt lat="64.15799" lon="-19.14736">
        <ele>564.32</ele>
        <time>2015-07-08T10:06:56Z</time>
      </trkpt>
      <trkpt lat="64.15802" lon="-19.14738">
        <ele>564.28</ele>
        <time>2015-07-08T10:07:21Z</time>
      </trkpt>
      <trkpt lat="64.15801" lon="-19.14737">
        <ele>563.68</ele>
        <time>2015-07-08T10:07:51Z</time>
      </trkpt>
      <trkpt lat="64.15801" lon="-19.14738">
        <ele>564</ele>
        <time>2015-07-08T10:08:27Z</time>
      </trkpt>
      <trkpt lat="64.158" lon="-19.14739">
        <ele>564.33</ele>
        <time>2015-07-08T10:09:20Z</time>
      </trkpt>
      <trkpt lat="64.158" lon="-19.1474">
        <ele>564.02</ele>
        <time>2015-07-08T10:10:05Z</time>
      </trkpt>
      <trkpt lat="64.158" lon="-19.14741">
        <ele>564.4</ele>
        <time>2015-07-08T10:10:44Z</time>
      </trkpt>
      <trkpt lat="64.15799" lon="-19.14741">
        <ele>564.04</ele>
        <time>2015-07-08T10:11:09Z</time>
      </trkpt>
      <trkpt lat="64.15801" lon="-19.14737">
        <ele>564.49</ele>
        <time>2015-07-08T10:11:37Z</time>
      </trkpt>
      <trkpt lat="64.15802" lon="-19.14736">
        <ele>564.58</ele>
        <time>2015-07-08T10:12:30Z</time>
      </trkpt>
      <trkpt lat="64.15802" lon="-19.14736">
        <ele>564.66</ele>
        <time>2015-07-08T10:13:34Z</time>
      </trkpt>
      <trkpt lat="64.15802" lon="-19.14739">
        <ele>564.86</ele>
        <time>2015-07-08T10:14:25Z</time>
      </trkpt>
      <trkpt lat="64.15803" lon="-19.14739">
        <ele>565.15</ele>
        <time>2015-07-08T10:14:54Z</time>
      </trkpt>
      <trkpt lat="64.15798" lon="-19.1473">
        <ele>565.33</ele>
        <time>2015-07-08T10:15:04Z</time>
      </trkpt>
      <trkpt lat="64.15794" lon="-19.14725">
        <ele>565.3</ele>
        <time>2015-07-08T10:15:07Z</time>
      </trkpt>
      <trkpt lat="64.15756" lon="-19.14639">
        <ele>564.12</ele>
        <time>2015-07-08T10:15:23Z</time>
      </trkpt>
      <trkpt lat="64.15735" lon="-19.14546">
        <ele>560.81</ele>
        <time>2015-07-08T10:15:33Z</time>
      </trkpt>
      <trkpt lat="64.15714" lon="-19.14464">
        <ele>557.87</ele>
        <time>2015-07-08T10:15:42Z</time>
      </trkpt>
      <trkpt lat="64.15706" lon="-19.14429">
        <ele>556.72</ele>
        <time>2015-07-08T10:15:46Z</time>
      </trkpt>
      <trkpt lat="64.15705" lon="-19.14377">
        <ele>555.4</ele>
        <time>2015-07-08T10:15:51Z</time>
      </trkpt>
      <trkpt lat="64.15712" lon="-19.14279">
        <ele>551.68</ele>
        <time>2015-07-08T10:16:01Z</time>
      </trkpt>
      <trkpt lat="64.15712" lon="-19.14217">
        <ele>548.29</ele>
        <time>2015-07-08T10:16:08Z</time>
      </trkpt>
      <trkpt lat="64.15712" lon="-19.1417">
        <ele>545.2</ele>
        <time>2015-07-08T10:16:13Z</time>
      </trkpt>
      <trkpt lat="64.15712" lon="-19.14123">
        <ele>541.92</ele>
        <time>2015-07-08T10:16:19Z</time>
      </trkpt>
      <trkpt lat="64.15712" lon="-19.14049">
        <ele>538.73</ele>
        <time>2015-07-08T10:16:26Z</time>
      </trkpt>
      <trkpt lat="64.15706" lon="-19.14">
        <ele>535.51</ele>
        <time>2015-07-08T10:16:33Z</time>
      </trkpt>
      <trkpt lat="64.15704" lon="-19.13992">
        <ele>534.49</ele>
        <time>2015-07-08T10:16:34Z</time>
      </trkpt>
      <trkpt lat="64.15691" lon="-19.13969">
        <ele>532.61</ele>
        <time>2015-07-08T10:16:38Z</time>
      </trkpt>
      <trkpt lat="64.15668" lon="-19.13952">
        <ele>529.03</ele>
        <time>2015-07-08T10:16:44Z</time>
      </trkpt>
      <trkpt lat="64.1564" lon="-19.13917">
        <ele>525.76</ele>
        <time>2015-07-08T10:16:51Z</time>
      </trkpt>
      <trkpt lat="64.15623" lon="-19.13891">
        <ele>522.73</ele>
        <time>2015-07-08T10:16:58Z</time>
      </trkpt>
      <trkpt lat="64.15616" lon="-19.13883">
        <ele>520.15</ele>
        <time>2015-07-08T10:17:04Z</time>
      </trkpt>
      <trkpt lat="64.15617" lon="-19.13883">
        <ele>518.78</ele>
        <time>2015-07-08T10:17:12Z</time>
      </trkpt>
      <trkpt lat="64.15612" lon="-19.13874">
        <ele>518.6</ele>
        <time>2015-07-08T10:17:15Z</time>
      </trkpt>
      <trkpt lat="64.15562" lon="-19.13788">
        <ele>515.45</ele>
        <time>2015-07-08T10:17:28Z</time>
      </trkpt>
      <trkpt lat="64.15558" lon="-19.13781">
        <ele>515.31</ele>
        <time>2015-07-08T10:17:29Z</time>
      </trkpt>
      <trkpt lat="64.15547" lon="-19.1375">
        <ele>515.53</ele>
        <time>2015-07-08T10:17:33Z</time>
      </trkpt>
      <trkpt lat="64.15528" lon="-19.1371">
        <ele>516.2</ele>
        <time>2015-07-08T10:17:39Z</time>
      </trkpt>
      <trkpt lat="64.15455" lon="-19.13695">
        <ele>516.67</ele>
        <time>2015-07-08T10:17:51Z</time>
      </trkpt>
      <trkpt lat="64.15421" lon="-19.13693">
        <ele>517.09</ele>
        <time>2015-07-08T10:17:58Z</time>
      </trkpt>
      <trkpt lat="64.15364" lon="-19.13711">
        <ele>517.24</ele>
        <time>2015-07-08T10:18:09Z</time>
      </trkpt>
      <trkpt lat="64.15354" lon="-19.13697">
        <ele>517.16</ele>
        <time>2015-07-08T10:18:11Z</time>
      </trkpt>
      <trkpt lat="64.153" lon="-19.13612">
        <ele>517.86</ele>
        <time>2015-07-08T10:18:22Z</time>
      </trkpt>
      <trkpt lat="64.15292" lon="-19.13593">
        <ele>518.17</ele>
        <time>2015-07-08T10:18:24Z</time>
      </trkpt>
      <trkpt lat="64.15267" lon="-19.13563">
        <ele>518.42</ele>
        <time>2015-07-08T10:18:29Z</time>
      </trkpt>
      <trkpt lat="64.15182" lon="-19.13553">
        <ele>517.62</ele>
        <time>2015-07-08T10:18:43Z</time>
      </trkpt>
      <trkpt lat="64.15147" lon="-19.13569">
        <ele>518.28</ele>
        <time>2015-07-08T10:18:49Z</time>
      </trkpt>
      <trkpt lat="64.15127" lon="-19.13562">
        <ele>518.75</ele>
        <time>2015-07-08T10:18:53Z</time>
      </trkpt>
      <trkpt lat="64.15055" lon="-19.13535">
        <ele>519.68</ele>
        <time>2015-07-08T10:19:07Z</time>
      </trkpt>
      <trkpt lat="64.1501" lon="-19.13492">
        <ele>519.66</ele>
        <time>2015-07-08T10:19:17Z</time>
      </trkpt>
      <trkpt lat="64.14908" lon="-19.13446">
        <ele>519.83</ele>
        <time>2015-07-08T10:19:35Z</time>
      </trkpt>
      <trkpt lat="64.14865" lon="-19.13429">
        <ele>519.92</ele>
        <time>2015-07-08T10:19:42Z</time>
      </trkpt>
      <trkpt lat="64.14822" lon="-19.13379">
        <ele>519.83</ele>
        <time>2015-07-08T10:19:50Z</time>
      </trkpt>
      <trkpt lat="64.14799" lon="-19.13364">
        <ele>519.57</ele>
        <time>2015-07-08T10:19:54Z</time>
      </trkpt>
      <trkpt lat="64.14771" lon="-19.13371">
        <ele>519.52</ele>
        <time>2015-07-08T10:19:59Z</time>
      </trkpt>
      <trkpt lat="64.14738" lon="-19.13351">
        <ele>519.62</ele>
        <time>2015-07-08T10:20:05Z</time>
      </trkpt>
      <trkpt lat="64.14665" lon="-19.13232">
        <ele>519.97</ele>
        <time>2015-07-08T10:20:21Z</time>
      </trkpt>
      <trkpt lat="64.14611" lon="-19.13191">
        <ele>520.22</ele>
        <time>2015-07-08T10:20:31Z</time>
      </trkpt>
      <trkpt lat="64.14582" lon="-19.13196">
        <ele>520.23</ele>
        <time>2015-07-08T10:20:36Z</time>
      </trkpt>
      <trkpt lat="64.14492" lon="-19.13202">
        <ele>520.41</ele>
        <time>2015-07-08T10:20:52Z</time>
      </trkpt>
      <trkpt lat="64.14482" lon="-19.13203">
        <ele>520.36</ele>
        <time>2015-07-08T10:20:54Z</time>
      </trkpt>
      <trkpt lat="64.14465" lon="-19.13196">
        <ele>520.32</ele>
        <time>2015-07-08T10:20:58Z</time>
      </trkpt>
      <trkpt lat="64.14451" lon="-19.13182">
        <ele>520.33</ele>
        <time>2015-07-08T10:21:01Z</time>
      </trkpt>
      <trkpt lat="64.14438" lon="-19.13165">
        <ele>520.42</ele>
        <time>2015-07-08T10:21:04Z</time>
      </trkpt>
      <trkpt lat="64.1442" lon="-19.13147">
        <ele>520.5</ele>
        <time>2015-07-08T10:21:08Z</time>
      </trkpt>
      <trkpt lat="64.14396" lon="-19.13073">
        <ele>520.4</ele>
        <time>2015-07-08T10:21:16Z</time>
      </trkpt>
      <trkpt lat="64.14394" lon="-19.13051">
        <ele>520.59</ele>
        <time>2015-07-08T10:21:18Z</time>
      </trkpt>
      <trkpt lat="64.14369" lon="-19.12971">
        <ele>521.02</ele>
        <time>2015-07-08T10:21:26Z</time>
      </trkpt>
      <trkpt lat="64.14323" lon="-19.12915">
        <ele>521.06</ele>
        <time>2015-07-08T10:21:36Z</time>
      </trkpt>
      <trkpt lat="64.14294" lon="-19.12913">
        <ele>520.9</ele>
        <time>2015-07-08T10:21:41Z</time>
      </trkpt>
      <trkpt lat="64.14224" lon="-19.12887">
        <ele>520.34</ele>
        <time>2015-07-08T10:21:54Z</time>
      </trkpt>
      <trkpt lat="64.14178" lon="-19.12864">
        <ele>520.95</ele>
        <time>2015-07-08T10:22:03Z</time>
      </trkpt>
      <trkpt lat="64.14149" lon="-19.1286">
        <ele>521.2</ele>
        <time>2015-07-08T10:22:08Z</time>
      </trkpt>
      <trkpt lat="64.14119" lon="-19.12867">
        <ele>522.06</ele>
        <time>2015-07-08T10:22:14Z</time>
      </trkpt>
      <trkpt lat="64.1409" lon="-19.1285">
        <ele>522.32</ele>
        <time>2015-07-08T10:22:19Z</time>
      </trkpt>
      <trkpt lat="64.14027" lon="-19.12877">
        <ele>523.28</ele>
        <time>2015-07-08T10:22:31Z</time>
      </trkpt>
      <trkpt lat="64.14001" lon="-19.12882">
        <ele>523.33</ele>
        <time>2015-07-08T10:22:40Z</time>
      </trkpt>
      <trkpt lat="64.14003" lon="-19.12884">
        <ele>523.67</ele>
        <time>2015-07-08T10:23:14Z</time>
      </trkpt>
      <trkpt lat="64.14004" lon="-19.12883">
        <ele>523.12</ele>
        <time>2015-07-08T10:24:31Z</time>
      </trkpt>
      <trkpt lat="64.14003" lon="-19.12883">
        <ele>523.92</ele>
        <time>2015-07-08T10:25:20Z</time>
      </trkpt>
      <trkpt lat="64.14003" lon="-19.12883">
        <ele>524.23</ele>
        <time>2015-07-08T10:25:53Z</time>
      </trkpt>
      <trkpt lat="64.14003" lon="-19.12883">
        <ele>524.19</ele>
        <time>2015-07-08T10:26:26Z</time>
      </trkpt>
      <trkpt lat="64.14003" lon="-19.12884">
        <ele>524.48</ele>
        <time>2015-07-08T10:26:53Z</time>
      </trkpt>
      <trkpt lat="64.14003" lon="-19.12883">
        <ele>524.05</ele>
        <time>2015-07-08T10:27:35Z</time>
      </trkpt>
      <trkpt lat="64.14003" lon="-19.12883">
        <ele>524.21</ele>
        <time>2015-07-08T10:27:56Z</time>
      </trkpt>
      <trkpt lat="64.13996" lon="-19.12879">
        <ele>524.23</ele>
        <time>2015-07-08T10:27:59Z</time>
      </trkpt>
      <trkpt lat="64.1393" lon="-19.12857">
        <ele>523.99</ele>
        <time>2015-07-08T10:28:14Z</time>
      </trkpt>
      <trkpt lat="64.13914" lon="-19.12852">
        <ele>524.12</ele>
        <time>2015-07-08T10:28:18Z</time>
      </trkpt>
      <trkpt lat="64.13896" lon="-19.12835">
        <ele>524.11</ele>
        <time>2015-07-08T10:28:22Z</time>
      </trkpt>
      <trkpt lat="64.13832" lon="-19.12768">
        <ele>523.27</ele>
        <time>2015-07-08T10:28:35Z</time>
      </trkpt>
      <trkpt lat="64.13802" lon="-19.12751">
        <ele>523.73</ele>
        <time>2015-07-08T10:28:42Z</time>
      </trkpt>
      <trkpt lat="64.13781" lon="-19.12748">
        <ele>523.24</ele>
        <time>2015-07-08T10:28:46Z</time>
      </trkpt>
      <trkpt lat="64.13765" lon="-19.12756">
        <ele>522.92</ele>
        <time>2015-07-08T10:28:49Z</time>
      </trkpt>
      <trkpt lat="64.13723" lon="-19.12742">
        <ele>523.18</ele>
        <time>2015-07-08T10:28:56Z</time>
      </trkpt>
      <trkpt lat="64.13693" lon="-19.12701">
        <ele>524.09</ele>
        <time>2015-07-08T10:29:02Z</time>
      </trkpt>
      <trkpt lat="64.13683" lon="-19.12686">
        <ele>524.36</ele>
        <time>2015-07-08T10:29:05Z</time>
      </trkpt>
      <trkpt lat="64.13652" lon="-19.12701">
        <ele>524.6</ele>
        <time>2015-07-08T10:29:12Z</time>
      </trkpt>
      <trkpt lat="64.13629" lon="-19.12694">
        <ele>524.51</ele>
        <time>2015-07-08T10:29:17Z</time>
      </trkpt>
      <trkpt lat="64.13604" lon="-19.1267">
        <ele>524.42</ele>
        <time>2015-07-08T10:29:23Z</time>
      </trkpt>
      <trkpt lat="64.13551" lon="-19.12598">
        <ele>526.11</ele>
        <time>2015-07-08T10:29:37Z</time>
      </trkpt>
      <trkpt lat="64.13523" lon="-19.12582">
        <ele>526.57</ele>
        <time>2015-07-08T10:29:45Z</time>
      </trkpt>
      <trkpt lat="64.13498" lon="-19.12586">
        <ele>526.54</ele>
        <time>2015-07-08T10:29:51Z</time>
      </trkpt>
      <trkpt lat="64.13472" lon="-19.12575">
        <ele>526.68</ele>
        <time>2015-07-08T10:29:56Z</time>
      </trkpt>
      <trkpt lat="64.13411" lon="-19.12503">
        <ele>527.02</ele>
        <time>2015-07-08T10:30:08Z</time>
      </trkpt>
      <trkpt lat="64.13335" lon="-19.12484">
        <ele>527.34</ele>
        <time>2015-07-08T10:30:21Z</time>
      </trkpt>
      <trkpt lat="64.13299" lon="-19.12453">
        <ele>527.38</ele>
        <time>2015-07-08T10:30:28Z</time>
      </trkpt>
      <trkpt lat="64.13279" lon="-19.12426">
        <ele>527.39</ele>
        <time>2015-07-08T10:30:32Z</time>
      </trkpt>
      <trkpt lat="64.13211" lon="-19.12341">
        <ele>527.75</ele>
        <time>2015-07-08T10:30:45Z</time>
      </trkpt>
      <trkpt lat="64.13153" lon="-19.12288">
        <ele>527.73</ele>
        <time>2015-07-08T10:30:58Z</time>
      </trkpt>
      <trkpt lat="64.13108" lon="-19.12247">
        <ele>527.93</ele>
        <time>2015-07-08T10:31:08Z</time>
      </trkpt>
      <trkpt lat="64.13087" lon="-19.12245">
        <ele>527.98</ele>
        <time>2015-07-08T10:31:12Z</time>
      </trkpt>
      <trkpt lat="64.13057" lon="-19.1225">
        <ele>528.15</ele>
        <time>2015-07-08T10:31:18Z</time>
      </trkpt>
      <trkpt lat="64.13021" lon="-19.12209">
        <ele>528.21</ele>
        <time>2015-07-08T10:31:27Z</time>
      </trkpt>
      <trkpt lat="64.13016" lon="-19.12208">
        <ele>528.14</ele>
        <time>2015-07-08T10:31:28Z</time>
      </trkpt>
      <trkpt lat="64.13003" lon="-19.12205">
        <ele>527.65</ele>
        <time>2015-07-08T10:31:31Z</time>
      </trkpt>
      <trkpt lat="64.12984" lon="-19.12188">
        <ele>527.04</ele>
        <time>2015-07-08T10:31:35Z</time>
      </trkpt>
      <trkpt lat="64.12906" lon="-19.12135">
        <ele>525.37</ele>
        <time>2015-07-08T10:31:48Z</time>
      </trkpt>
      <trkpt lat="64.12867" lon="-19.12129">
        <ele>524.9</ele>
        <time>2015-07-08T10:31:54Z</time>
      </trkpt>
      <trkpt lat="64.12788" lon="-19.12079">
        <ele>524.99</ele>
        <time>2015-07-08T10:32:03Z</time>
      </trkpt>
      <trkpt lat="64.12721" lon="-19.1202">
        <ele>525.11</ele>
        <time>2015-07-08T10:32:13Z</time>
      </trkpt>
      <trkpt lat="64.12657" lon="-19.11938">
        <ele>525.16</ele>
        <time>2015-07-08T10:32:23Z</time>
      </trkpt>
      <trkpt lat="64.12575" lon="-19.11879">
        <ele>527.61</ele>
        <time>2015-07-08T10:32:34Z</time>
      </trkpt>
      <trkpt lat="64.12529" lon="-19.11861">
        <ele>528.93</ele>
        <time>2015-07-08T10:32:41Z</time>
      </trkpt>
      <trkpt lat="64.12467" lon="-19.11873">
        <ele>530.92</ele>
        <time>2015-07-08T10:32:52Z</time>
      </trkpt>
      <trkpt lat="64.1241" lon="-19.11858">
        <ele>531.84</ele>
        <time>2015-07-08T10:33:03Z</time>
      </trkpt>
      <trkpt lat="64.12334" lon="-19.11877">
        <ele>531.78</ele>
        <time>2015-07-08T10:33:17Z</time>
      </trkpt>
      <trkpt lat="64.1226" lon="-19.11829">
        <ele>531.75</ele>
        <time>2015-07-08T10:33:29Z</time>
      </trkpt>
      <trkpt lat="64.12242" lon="-19.11817">
        <ele>531.85</ele>
        <time>2015-07-08T10:33:32Z</time>
      </trkpt>
      <trkpt lat="64.12222" lon="-19.11818">
        <ele>532.12</ele>
        <time>2015-07-08T10:33:35Z</time>
      </trkpt>
      <trkpt lat="64.12181" lon="-19.11802">
        <ele>532.71</ele>
        <time>2015-07-08T10:33:41Z</time>
      </trkpt>
      <trkpt lat="64.12113" lon="-19.11755">
        <ele>532.77</ele>
        <time>2015-07-08T10:33:52Z</time>
      </trkpt>
      <trkpt lat="64.12077" lon="-19.11709">
        <ele>532.78</ele>
        <time>2015-07-08T10:33:58Z</time>
      </trkpt>
      <trkpt lat="64.12055" lon="-19.11689">
        <ele>533.52</ele>
        <time>2015-07-08T10:34:02Z</time>
      </trkpt>
      <trkpt lat="64.12027" lon="-19.11608">
        <ele>533.2</ele>
        <time>2015-07-08T10:34:10Z</time>
      </trkpt>
      <trkpt lat="64.12007" lon="-19.1159">
        <ele>532.85</ele>
        <time>2015-07-08T10:34:15Z</time>
      </trkpt>
      <trkpt lat="64.11937" lon="-19.11613">
        <ele>534.29</ele>
        <time>2015-07-08T10:34:28Z</time>
      </trkpt>
      <trkpt lat="64.11852" lon="-19.11582">
        <ele>534.08</ele>
        <time>2015-07-08T10:34:43Z</time>
      </trkpt>
      <trkpt lat="64.11756" lon="-19.1153">
        <ele>534.56</ele>
        <time>2015-07-08T10:34:58Z</time>
      </trkpt>
      <trkpt lat="64.11737" lon="-19.1151">
        <ele>534.55</ele>
        <time>2015-07-08T10:35:01Z</time>
      </trkpt>
      <trkpt lat="64.11708" lon="-19.11452">
        <ele>534.32</ele>
        <time>2015-07-08T10:35:07Z</time>
      </trkpt>
      <trkpt lat="64.11641" lon="-19.11369">
        <ele>534.05</ele>
        <time>2015-07-08T10:35:20Z</time>
      </trkpt>
      <trkpt lat="64.11564" lon="-19.11301">
        <ele>534.65</ele>
        <time>2015-07-08T10:35:34Z</time>
      </trkpt>
      <trkpt lat="64.11545" lon="-19.1127">
        <ele>534.63</ele>
        <time>2015-07-08T10:35:38Z</time>
      </trkpt>
      <trkpt lat="64.11536" lon="-19.11251">
        <ele>534.6</ele>
        <time>2015-07-08T10:35:40Z</time>
      </trkpt>
      <trkpt lat="64.11496" lon="-19.1124">
        <ele>535.82</ele>
        <time>2015-07-08T10:35:48Z</time>
      </trkpt>
      <trkpt lat="64.11428" lon="-19.11299">
        <ele>536.98</ele>
        <time>2015-07-08T10:36:01Z</time>
      </trkpt>
      <trkpt lat="64.11367" lon="-19.11347">
        <ele>537.39</ele>
        <time>2015-07-08T10:36:14Z</time>
      </trkpt>
      <trkpt lat="64.11367" lon="-19.11346">
        <ele>536.88</ele>
        <time>2015-07-08T10:36:27Z</time>
      </trkpt>
      <trkpt lat="64.11368" lon="-19.11347">
        <ele>536.83</ele>
        <time>2015-07-08T10:37:21Z</time>
      </trkpt>
      <trkpt lat="64.11368" lon="-19.11347">
        <ele>536.48</ele>
        <time>2015-07-08T10:38:03Z</time>
      </trkpt>
      <trkpt lat="64.11369" lon="-19.11345">
        <ele>536.93</ele>
        <time>2015-07-08T10:38:59Z</time>
      </trkpt>
      <trkpt lat="64.1137" lon="-19.11347">
        <ele>536.62</ele>
        <time>2015-07-08T10:39:36Z</time>
      </trkpt>
      <trkpt lat="64.1137" lon="-19.11346">
        <ele>536.71</ele>
        <time>2015-07-08T10:40:15Z</time>
      </trkpt>
      <trkpt lat="64.11367" lon="-19.11348">
        <ele>536.33</ele>
        <time>2015-07-08T10:40:47Z</time>
      </trkpt>
      <trkpt lat="64.11365" lon="-19.11345">
        <ele>535.81</ele>
        <time>2015-07-08T10:41:13Z</time>
      </trkpt>
      <trkpt lat="64.11359" lon="-19.11338">
        <ele>535.94</ele>
        <time>2015-07-08T10:41:16Z</time>
      </trkpt>
      <trkpt lat="64.11305" lon="-19.113">
        <ele>536.23</ele>
        <time>2015-07-08T10:41:28Z</time>
      </trkpt>
      <trkpt lat="64.11234" lon="-19.11254">
        <ele>536.65</ele>
        <time>2015-07-08T10:41:40Z</time>
      </trkpt>
      <trkpt lat="64.11135" lon="-19.11165">
        <ele>538.24</ele>
        <time>2015-07-08T10:41:55Z</time>
      </trkpt>
      <trkpt lat="64.11037" lon="-19.11084">
        <ele>538.77</ele>
        <time>2015-07-08T10:42:10Z</time>
      </trkpt>
      <trkpt lat="64.11023" lon="-19.1107">
        <ele>538.78</ele>
        <time>2015-07-08T10:42:12Z</time>
      </trkpt>
      <trkpt lat="64.10913" lon="-19.11019">
        <ele>538.97</ele>
        <time>2015-07-08T10:42:26Z</time>
      </trkpt>
      <trkpt lat="64.10785" lon="-19.10922">
        <ele>539.25</ele>
        <time>2015-07-08T10:42:43Z</time>
      </trkpt>
      <trkpt lat="64.10766" lon="-19.10899">
        <ele>539.27</ele>
        <time>2015-07-08T10:42:46Z</time>
      </trkpt>
      <trkpt lat="64.10712" lon="-19.10765">
        <ele>539.44</ele>
        <time>2015-07-08T10:42:56Z</time>
      </trkpt>
      <trkpt lat="64.10694" lon="-19.10702">
        <ele>539.12</ele>
        <time>2015-07-08T10:43:00Z</time>
      </trkpt>
      <trkpt lat="64.10616" lon="-19.10596">
        <ele>538.69</ele>
        <time>2015-07-08T10:43:11Z</time>
      </trkpt>
      <trkpt lat="64.10602" lon="-19.10583">
        <ele>538.76</ele>
        <time>2015-07-08T10:43:13Z</time>
      </trkpt>
      <trkpt lat="64.10579" lon="-19.10539">
        <ele>538.93</ele>
        <time>2015-07-08T10:43:17Z</time>
      </trkpt>
      <trkpt lat="64.10561" lon="-19.1047">
        <ele>539.5</ele>
        <time>2015-07-08T10:43:22Z</time>
      </trkpt>
      <trkpt lat="64.10516" lon="-19.10378">
        <ele>539.78</ele>
        <time>2015-07-08T10:43:32Z</time>
      </trkpt>
      <trkpt lat="64.10501" lon="-19.10354">
        <ele>539.68</ele>
        <time>2015-07-08T10:43:36Z</time>
      </trkpt>
      <trkpt lat="64.10488" lon="-19.10315">
        <ele>539.74</ele>
        <time>2015-07-08T10:43:41Z</time>
      </trkpt>
      <trkpt lat="64.10477" lon="-19.10256">
        <ele>540.01</ele>
        <time>2015-07-08T10:43:53Z</time>
      </trkpt>
      <trkpt lat="64.10477" lon="-19.1026">
        <ele>540.05</ele>
        <time>2015-07-08T10:44:21Z</time>
      </trkpt>
      <trkpt lat="64.10477" lon="-19.10261">
        <ele>539.92</ele>
        <time>2015-07-08T10:44:54Z</time>
      </trkpt>
      <trkpt lat="64.10478" lon="-19.10265">
        <ele>539.86</ele>
        <time>2015-07-08T10:45:21Z</time>
      </trkpt>
      <trkpt lat="64.10478" lon="-19.10268">
        <ele>539.72</ele>
        <time>2015-07-08T10:46:13Z</time>
      </trkpt>
      <trkpt lat="64.10478" lon="-19.10267">
        <ele>539.93</ele>
        <time>2015-07-08T10:46:54Z</time>
      </trkpt>
      <trkpt lat="64.10478" lon="-19.10264">
        <ele>539.9</ele>
        <time>2015-07-08T10:47:35Z</time>
      </trkpt>
      <trkpt lat="64.10479" lon="-19.10263">
        <ele>539.83</ele>
        <time>2015-07-08T10:48:07Z</time>
      </trkpt>
      <trkpt lat="64.10478" lon="-19.10262">
        <ele>539.85</ele>
        <time>2015-07-08T10:48:42Z</time>
      </trkpt>
      <trkpt lat="64.10478" lon="-19.10263">
        <ele>539.93</ele>
        <time>2015-07-08T10:49:27Z</time>
      </trkpt>
      <trkpt lat="64.10478" lon="-19.1027">
        <ele>539.47</ele>
        <time>2015-07-08T10:49:50Z</time>
      </trkpt>
      <trkpt lat="64.10474" lon="-19.10267">
        <ele>539.34</ele>
        <time>2015-07-08T10:50:00Z</time>
      </trkpt>
      <trkpt lat="64.10451" lon="-19.10262">
        <ele>540.09</ele>
        <time>2015-07-08T10:50:14Z</time>
      </trkpt>
      <trkpt lat="64.10415" lon="-19.10311">
        <ele>540.31</ele>
        <time>2015-07-08T10:50:29Z</time>
      </trkpt>
      <trkpt lat="64.10356" lon="-19.10352">
        <ele>540.75</ele>
        <time>2015-07-08T10:50:43Z</time>
      </trkpt>
      <trkpt lat="64.10273" lon="-19.10394">
        <ele>541.21</ele>
        <time>2015-07-08T10:51:00Z</time>
      </trkpt>
      <trkpt lat="64.10266" lon="-19.10397">
        <ele>541.29</ele>
        <time>2015-07-08T10:51:01Z</time>
      </trkpt>
      <trkpt lat="64.1024" lon="-19.1042">
        <ele>541.57</ele>
        <time>2015-07-08T10:51:05Z</time>
      </trkpt>
      <trkpt lat="64.1017" lon="-19.1058">
        <ele>542.94</ele>
        <time>2015-07-08T10:51:18Z</time>
      </trkpt>
      <trkpt lat="64.10129" lon="-19.10651">
        <ele>543.33</ele>
        <time>2015-07-08T10:51:24Z</time>
      </trkpt>
      <trkpt lat="64.10116" lon="-19.10669">
        <ele>543.34</ele>
        <time>2015-07-08T10:51:26Z</time>
      </trkpt>
      <trkpt lat="64.10073" lon="-19.10691">
        <ele>543.13</ele>
        <time>2015-07-08T10:51:32Z</time>
      </trkpt>
      <trkpt lat="64.1003" lon="-19.10727">
        <ele>543.05</ele>
        <time>2015-07-08T10:51:38Z</time>
      </trkpt>
      <trkpt lat="64.10018" lon="-19.10755">
        <ele>543.67</ele>
        <time>2015-07-08T10:51:40Z</time>
      </trkpt>
      <trkpt lat="64.09968" lon="-19.10808">
        <ele>544.38</ele>
        <time>2015-07-08T10:51:47Z</time>
      </trkpt>
      <trkpt lat="64.0993" lon="-19.10802">
        <ele>543.57</ele>
        <time>2015-07-08T10:51:52Z</time>
      </trkpt>
      <trkpt lat="64.09871" lon="-19.1078">
        <ele>542.67</ele>
        <time>2015-07-08T10:52:00Z</time>
      </trkpt>
      <trkpt lat="64.09828" lon="-19.10824">
        <ele>543</ele>
        <time>2015-07-08T10:52:06Z</time>
      </trkpt>
      <trkpt lat="64.09807" lon="-19.10863">
        <ele>543.65</ele>
        <time>2015-07-08T10:52:09Z</time>
      </trkpt>
      <trkpt lat="64.09784" lon="-19.10987">
        <ele>545.09</ele>
        <time>2015-07-08T10:52:16Z</time>
      </trkpt>
      <trkpt lat="64.09768" lon="-19.11111">
        <ele>543.8</ele>
        <time>2015-07-08T10:52:24Z</time>
      </trkpt>
      <trkpt lat="64.09761" lon="-19.11118">
        <ele>543.58</ele>
        <time>2015-07-08T10:52:25Z</time>
      </trkpt>
      <trkpt lat="64.09749" lon="-19.11129">
        <ele>542.95</ele>
        <time>2015-07-08T10:52:27Z</time>
      </trkpt>
      <trkpt lat="64.09686" lon="-19.11246">
        <ele>542.77</ele>
        <time>2015-07-08T10:52:39Z</time>
      </trkpt>
      <trkpt lat="64.09625" lon="-19.11321">
        <ele>543.75</ele>
        <time>2015-07-08T10:52:48Z</time>
      </trkpt>
      <trkpt lat="64.09583" lon="-19.11318">
        <ele>543.66</ele>
        <time>2015-07-08T10:52:54Z</time>
      </trkpt>
      <trkpt lat="64.09497" lon="-19.11202">
        <ele>543.06</ele>
        <time>2015-07-08T10:53:07Z</time>
      </trkpt>
      <trkpt lat="64.09472" lon="-19.11135">
        <ele>542.49</ele>
        <time>2015-07-08T10:53:12Z</time>
      </trkpt>
      <trkpt lat="64.09412" lon="-19.10834">
        <ele>543.33</ele>
        <time>2015-07-08T10:53:29Z</time>
      </trkpt>
      <trkpt lat="64.09358" lon="-19.10531">
        <ele>543.37</ele>
        <time>2015-07-08T10:53:45Z</time>
      </trkpt>
      <trkpt lat="64.09314" lon="-19.10313">
        <ele>543.21</ele>
        <time>2015-07-08T10:53:57Z</time>
      </trkpt>
      <trkpt lat="64.0926" lon="-19.10203">
        <ele>543.01</ele>
        <time>2015-07-08T10:54:05Z</time>
      </trkpt>
      <trkpt lat="64.09165" lon="-19.10084">
        <ele>543.6</ele>
        <time>2015-07-08T10:54:18Z</time>
      </trkpt>
      <trkpt lat="64.09117" lon="-19.09947">
        <ele>543.79</ele>
        <time>2015-07-08T10:54:27Z</time>
      </trkpt>
      <trkpt lat="64.09106" lon="-19.09864">
        <ele>543.55</ele>
        <time>2015-07-08T10:54:31Z</time>
      </trkpt>
      <trkpt lat="64.09059" lon="-19.09611">
        <ele>542.7</ele>
        <time>2015-07-08T10:54:46Z</time>
      </trkpt>
      <trkpt lat="64.09056" lon="-19.09597">
        <ele>542.65</ele>
        <time>2015-07-08T10:54:47Z</time>
      </trkpt>
      <trkpt lat="64.09056" lon="-19.09511">
        <ele>542.51</ele>
        <time>2015-07-08T10:54:52Z</time>
      </trkpt>
      <trkpt lat="64.09081" lon="-19.09335">
        <ele>542.48</ele>
        <time>2015-07-08T10:55:04Z</time>
      </trkpt>
      <trkpt lat="64.09093" lon="-19.09298">
        <ele>542.48</ele>
        <time>2015-07-08T10:55:14Z</time>
      </trkpt>
      <trkpt lat="64.09093" lon="-19.09298">
        <ele>542.47</ele>
        <time>2015-07-08T10:55:20Z</time>
      </trkpt>
      <trkpt lat="64.09096" lon="-19.09287">
        <ele>542.4</ele>
        <time>2015-07-08T10:55:23Z</time>
      </trkpt>
      <trkpt lat="64.0911" lon="-19.09264">
        <ele>542.26</ele>
        <time>2015-07-08T10:55:34Z</time>
      </trkpt>
      <trkpt lat="64.09109" lon="-19.09266">
        <ele>542.78</ele>
        <time>2015-07-08T10:56:28Z</time>
      </trkpt>
      <trkpt lat="64.09109" lon="-19.09267">
        <ele>542.64</ele>
        <time>2015-07-08T10:57:40Z</time>
      </trkpt>
      <trkpt lat="64.09109" lon="-19.09266">
        <ele>542.6</ele>
        <time>2015-07-08T10:58:49Z</time>
      </trkpt>
      <trkpt lat="64.0911" lon="-19.09263">
        <ele>542.46</ele>
        <time>2015-07-08T11:00:05Z</time>
      </trkpt>
      <trkpt lat="64.09112" lon="-19.09262">
        <ele>541.79</ele>
        <time>2015-07-08T11:00:28Z</time>
      </trkpt>
      <trkpt lat="64.09115" lon="-19.09252">
        <ele>541.87</ele>
        <time>2015-07-08T11:00:31Z</time>
      </trkpt>
      <trkpt lat="64.09165" lon="-19.09195">
        <ele>543.26</ele>
        <time>2015-07-08T11:00:41Z</time>
      </trkpt>
      <trkpt lat="64.09228" lon="-19.0913">
        <ele>543.79</ele>
        <time>2015-07-08T11:00:52Z</time>
      </trkpt>
      <trkpt lat="64.09274" lon="-19.0907">
        <ele>544.58</ele>
        <time>2015-07-08T11:00:59Z</time>
      </trkpt>
      <trkpt lat="64.09287" lon="-19.09045">
        <ele>544.8</ele>
        <time>2015-07-08T11:01:01Z</time>
      </trkpt>
      <trkpt lat="64.09312" lon="-19.08937">
        <ele>546.06</ele>
        <time>2015-07-08T11:01:08Z</time>
      </trkpt>
      <trkpt lat="64.09312" lon="-19.08886">
        <ele>546.4</ele>
        <time>2015-07-08T11:01:11Z</time>
      </trkpt>
      <trkpt lat="64.09309" lon="-19.08831">
        <ele>546.76</ele>
        <time>2015-07-08T11:01:14Z</time>
      </trkpt>
      <trkpt lat="64.09267" lon="-19.087">
        <ele>546.22</ele>
        <time>2015-07-08T11:01:23Z</time>
      </trkpt>
      <trkpt lat="64.09195" lon="-19.08609">
        <ele>546.61</ele>
        <time>2015-07-08T11:01:33Z</time>
      </trkpt>
      <trkpt lat="64.0917" lon="-19.08502">
        <ele>546.65</ele>
        <time>2015-07-08T11:01:40Z</time>
      </trkpt>
      <trkpt lat="64.0917" lon="-19.08345">
        <ele>545.95</ele>
        <time>2015-07-08T11:01:50Z</time>
      </trkpt>
      <trkpt lat="64.09167" lon="-19.08105">
        <ele>545.81</ele>
        <time>2015-07-08T11:02:06Z</time>
      </trkpt>
      <trkpt lat="64.09163" lon="-19.07882">
        <ele>545.88</ele>
        <time>2015-07-08T11:02:21Z</time>
      </trkpt>
      <trkpt lat="64.09153" lon="-19.07639">
        <ele>546.39</ele>
        <time>2015-07-08T11:02:38Z</time>
      </trkpt>
      <trkpt lat="64.09145" lon="-19.07434">
        <ele>549.58</ele>
        <time>2015-07-08T11:02:53Z</time>
      </trkpt>
      <trkpt lat="64.09137" lon="-19.07311">
        <ele>551.91</ele>
        <time>2015-07-08T11:03:03Z</time>
      </trkpt>
      <trkpt lat="64.09116" lon="-19.07222">
        <ele>552.39</ele>
        <time>2015-07-08T11:03:11Z</time>
      </trkpt>
      <trkpt lat="64.09099" lon="-19.0713">
        <ele>553.15</ele>
        <time>2015-07-08T11:03:23Z</time>
      </trkpt>
      <trkpt lat="64.09104" lon="-19.07098">
        <ele>553.52</ele>
        <time>2015-07-08T11:03:27Z</time>
      </trkpt>
      <trkpt lat="64.09127" lon="-19.07037">
        <ele>554.32</ele>
        <time>2015-07-08T11:03:34Z</time>
      </trkpt>
      <trkpt lat="64.0914" lon="-19.06977">
        <ele>554.93</ele>
        <time>2015-07-08T11:03:39Z</time>
      </trkpt>
      <trkpt lat="64.09147" lon="-19.06911">
        <ele>555.95</ele>
        <time>2015-07-08T11:03:43Z</time>
      </trkpt>
      <trkpt lat="64.0919" lon="-19.06776">
        <ele>557.56</ele>
        <time>2015-07-08T11:03:53Z</time>
      </trkpt>
      <trkpt lat="64.09193" lon="-19.06681">
        <ele>558.57</ele>
        <time>2015-07-08T11:03:59Z</time>
      </trkpt>
      <trkpt lat="64.09196" lon="-19.06488">
        <ele>560.42</ele>
        <time>2015-07-08T11:04:12Z</time>
      </trkpt>
      <trkpt lat="64.09178" lon="-19.06281">
        <ele>563.58</ele>
        <time>2015-07-08T11:04:26Z</time>
      </trkpt>
      <trkpt lat="64.09154" lon="-19.06141">
        <ele>566.83</ele>
        <time>2015-07-08T11:04:36Z</time>
      </trkpt>
      <trkpt lat="64.09146" lon="-19.06073">
        <ele>568.19</ele>
        <time>2015-07-08T11:04:41Z</time>
      </trkpt>
      <trkpt lat="64.09146" lon="-19.05888">
        <ele>569.47</ele>
        <time>2015-07-08T11:04:53Z</time>
      </trkpt>
      <trkpt lat="64.09128" lon="-19.05805">
        <ele>569.49</ele>
        <time>2015-07-08T11:04:58Z</time>
      </trkpt>
      <trkpt lat="64.09103" lon="-19.05738">
        <ele>568.11</ele>
        <time>2015-07-08T11:05:03Z</time>
      </trkpt>
      <trkpt lat="64.09047" lon="-19.05659">
        <ele>567.76</ele>
        <time>2015-07-08T11:05:12Z</time>
      </trkpt>
      <trkpt lat="64.0904" lon="-19.05632">
        <ele>568</ele>
        <time>2015-07-08T11:05:15Z</time>
      </trkpt>
      <trkpt lat="64.09027" lon="-19.05597">
        <ele>568.27</ele>
        <time>2015-07-08T11:05:19Z</time>
      </trkpt>
      <trkpt lat="64.08941" lon="-19.05468">
        <ele>568.81</ele>
        <time>2015-07-08T11:05:32Z</time>
      </trkpt>
      <trkpt lat="64.08853" lon="-19.05399">
        <ele>570.17</ele>
        <time>2015-07-08T11:05:42Z</time>
      </trkpt>
      <trkpt lat="64.08746" lon="-19.05353">
        <ele>570.88</ele>
        <time>2015-07-08T11:05:52Z</time>
      </trkpt>
      <trkpt lat="64.08642" lon="-19.05322">
        <ele>573.51</ele>
        <time>2015-07-08T11:06:03Z</time>
      </trkpt>
      <trkpt lat="64.08519" lon="-19.05315">
        <ele>573.38</ele>
        <time>2015-07-08T11:06:18Z</time>
      </trkpt>
      <trkpt lat="64.08498" lon="-19.05314">
        <ele>573.65</ele>
        <time>2015-07-08T11:06:25Z</time>
      </trkpt>
      <trkpt lat="64.08501" lon="-19.05317">
        <ele>573.19</ele>
        <time>2015-07-08T11:06:59Z</time>
      </trkpt>
      <trkpt lat="64.08503" lon="-19.05315">
        <ele>573.18</ele>
        <time>2015-07-08T11:07:56Z</time>
      </trkpt>
      <trkpt lat="64.08501" lon="-19.05316">
        <ele>573.58</ele>
        <time>2015-07-08T11:08:38Z</time>
      </trkpt>
      <trkpt lat="64.08453" lon="-19.05314">
        <ele>573.75</ele>
        <time>2015-07-08T11:08:50Z</time>
      </trkpt>
      <trkpt lat="64.08392" lon="-19.05307">
        <ele>572.34</ele>
        <time>2015-07-08T11:09:08Z</time>
      </trkpt>
      <trkpt lat="64.08333" lon="-19.0529">
        <ele>571.66</ele>
        <time>2015-07-08T11:09:25Z</time>
      </trkpt>
      <trkpt lat="64.08277" lon="-19.05266">
        <ele>572.09</ele>
        <time>2015-07-08T11:09:35Z</time>
      </trkpt>
      <trkpt lat="64.08194" lon="-19.05228">
        <ele>571.71</ele>
        <time>2015-07-08T11:09:48Z</time>
      </trkpt>
      <trkpt lat="64.08189" lon="-19.05227">
        <ele>571.56</ele>
        <time>2015-07-08T11:09:49Z</time>
      </trkpt>
      <trkpt lat="64.08125" lon="-19.05238">
        <ele>570.96</ele>
        <time>2015-07-08T11:10:00Z</time>
      </trkpt>
      <trkpt lat="64.08115" lon="-19.05238">
        <ele>570.29</ele>
        <time>2015-07-08T11:10:08Z</time>
      </trkpt>
      <trkpt lat="64.08115" lon="-19.05238">
        <ele>569.9</ele>
        <time>2015-07-08T11:11:01Z</time>
      </trkpt>
      <trkpt lat="64.0811" lon="-19.05236">
        <ele>569.88</ele>
        <time>2015-07-08T11:11:04Z</time>
      </trkpt>
      <trkpt lat="64.08054" lon="-19.0521">
        <ele>569.78</ele>
        <time>2015-07-08T11:11:16Z</time>
      </trkpt>
      <trkpt lat="64.08048" lon="-19.05208">
        <ele>569.8</ele>
        <time>2015-07-08T11:11:17Z</time>
      </trkpt>
      <trkpt lat="64.08011" lon="-19.05206">
        <ele>570.14</ele>
        <time>2015-07-08T11:11:22Z</time>
      </trkpt>
      <trkpt lat="64.07929" lon="-19.05163">
        <ele>570.86</ele>
        <time>2015-07-08T11:11:32Z</time>
      </trkpt>
      <trkpt lat="64.07815" lon="-19.05126">
        <ele>571.53</ele>
        <time>2015-07-08T11:11:46Z</time>
      </trkpt>
      <trkpt lat="64.0771" lon="-19.05101">
        <ele>573.52</ele>
        <time>2015-07-08T11:11:57Z</time>
      </trkpt>
      <trkpt lat="64.07573" lon="-19.05082">
        <ele>575.87</ele>
        <time>2015-07-08T11:12:09Z</time>
      </trkpt>
      <trkpt lat="64.07448" lon="-19.05067">
        <ele>575.7</ele>
        <time>2015-07-08T11:12:21Z</time>
      </trkpt>
      <trkpt lat="64.07406" lon="-19.05026">
        <ele>575.72</ele>
        <time>2015-07-08T11:12:26Z</time>
      </trkpt>
      <trkpt lat="64.07359" lon="-19.04935">
        <ele>575.46</ele>
        <time>2015-07-08T11:12:32Z</time>
      </trkpt>
      <trkpt lat="64.07253" lon="-19.04878">
        <ele>576.04</ele>
        <time>2015-07-08T11:12:42Z</time>
      </trkpt>
      <trkpt lat="64.07142" lon="-19.0488">
        <ele>576.74</ele>
        <time>2015-07-08T11:12:53Z</time>
      </trkpt>
      <trkpt lat="64.07014" lon="-19.04862">
        <ele>577.31</ele>
        <time>2015-07-08T11:13:06Z</time>
      </trkpt>
      <trkpt lat="64.06918" lon="-19.04892">
        <ele>578.08</ele>
        <time>2015-07-08T11:13:17Z</time>
      </trkpt>
      <trkpt lat="64.06887" lon="-19.04912">
        <ele>576.85</ele>
        <time>2015-07-08T11:13:25Z</time>
      </trkpt>
      <trkpt lat="64.06889" lon="-19.04912">
        <ele>575.54</ele>
        <time>2015-07-08T11:13:52Z</time>
      </trkpt>
      <trkpt lat="64.06882" lon="-19.04915">
        <ele>575.61</ele>
        <time>2015-07-08T11:13:55Z</time>
      </trkpt>
      <trkpt lat="64.06808" lon="-19.04941">
        <ele>575.75</ele>
        <time>2015-07-08T11:14:07Z</time>
      </trkpt>
      <trkpt lat="64.06653" lon="-19.04988">
        <ele>574.64</ele>
        <time>2015-07-08T11:14:26Z</time>
      </trkpt>
      <trkpt lat="64.06539" lon="-19.04985">
        <ele>573.91</ele>
        <time>2015-07-08T11:14:40Z</time>
      </trkpt>
      <trkpt lat="64.06489" lon="-19.04939">
        <ele>574.27</ele>
        <time>2015-07-08T11:14:49Z</time>
      </trkpt>
      <trkpt lat="64.0649" lon="-19.04937">
        <ele>574.75</ele>
        <time>2015-07-08T11:15:05Z</time>
      </trkpt>
      <trkpt lat="64.0649" lon="-19.04937">
        <ele>574.83</ele>
        <time>2015-07-08T11:15:15Z</time>
      </trkpt>
      <trkpt lat="64.06487" lon="-19.04932">
        <ele>574.84</ele>
        <time>2015-07-08T11:15:17Z</time>
      </trkpt>
      <trkpt lat="64.06437" lon="-19.04861">
        <ele>575.35</ele>
        <time>2015-07-08T11:15:27Z</time>
      </trkpt>
      <trkpt lat="64.06388" lon="-19.04747">
        <ele>578.37</ele>
        <time>2015-07-08T11:15:36Z</time>
      </trkpt>
      <trkpt lat="64.06342" lon="-19.0465">
        <ele>580.44</ele>
        <time>2015-07-08T11:15:46Z</time>
      </trkpt>
      <trkpt lat="64.06274" lon="-19.04564">
        <ele>577.28</ele>
        <time>2015-07-08T11:15:56Z</time>
      </trkpt>
      <trkpt lat="64.06203" lon="-19.04416">
        <ele>577.26</ele>
        <time>2015-07-08T11:16:07Z</time>
      </trkpt>
      <trkpt lat="64.06113" lon="-19.04287">
        <ele>577.76</ele>
        <time>2015-07-08T11:16:20Z</time>
      </trkpt>
      <trkpt lat="64.06019" lon="-19.04149">
        <ele>579.68</ele>
        <time>2015-07-08T11:16:31Z</time>
      </trkpt>
      <trkpt lat="64.05964" lon="-19.04068">
        <ele>580.96</ele>
        <time>2015-07-08T11:16:38Z</time>
      </trkpt>
      <trkpt lat="64.05875" lon="-19.0395">
        <ele>584.5</ele>
        <time>2015-07-08T11:16:50Z</time>
      </trkpt>
      <trkpt lat="64.05831" lon="-19.03931">
        <ele>586.5</ele>
        <time>2015-07-08T11:16:55Z</time>
      </trkpt>
      <trkpt lat="64.05781" lon="-19.03944">
        <ele>588.53</ele>
        <time>2015-07-08T11:17:05Z</time>
      </trkpt>
      <trkpt lat="64.05781" lon="-19.03945">
        <ele>588.7</ele>
        <time>2015-07-08T11:17:25Z</time>
      </trkpt>
      <trkpt lat="64.0578" lon="-19.03946">
        <ele>588.82</ele>
        <time>2015-07-08T11:17:35Z</time>
      </trkpt>
      <trkpt lat="64.05774" lon="-19.0395">
        <ele>588.81</ele>
        <time>2015-07-08T11:17:38Z</time>
      </trkpt>
      <trkpt lat="64.05756" lon="-19.03967">
        <ele>588.67</ele>
        <time>2015-07-08T11:17:42Z</time>
      </trkpt>
      <trkpt lat="64.05656" lon="-19.04043">
        <ele>588.17</ele>
        <time>2015-07-08T11:17:56Z</time>
      </trkpt>
      <trkpt lat="64.05595" lon="-19.04084">
        <ele>585.8</ele>
        <time>2015-07-08T11:18:07Z</time>
      </trkpt>
      <trkpt lat="64.05594" lon="-19.04084">
        <ele>584.26</ele>
        <time>2015-07-08T11:18:21Z</time>
      </trkpt>
      <trkpt lat="64.05587" lon="-19.04085">
        <ele>584.2</ele>
        <time>2015-07-08T11:18:24Z</time>
      </trkpt>
      <trkpt lat="64.05521" lon="-19.04123">
        <ele>583.56</ele>
        <time>2015-07-08T11:18:34Z</time>
      </trkpt>
      <trkpt lat="64.05371" lon="-19.04201">
        <ele>582.94</ele>
        <time>2015-07-08T11:18:50Z</time>
      </trkpt>
      <trkpt lat="64.05208" lon="-19.04321">
        <ele>581.78</ele>
        <time>2015-07-08T11:19:08Z</time>
      </trkpt>
      <trkpt lat="64.05095" lon="-19.04415">
        <ele>578.68</ele>
        <time>2015-07-08T11:19:21Z</time>
      </trkpt>
      <trkpt lat="64.04932" lon="-19.04529">
        <ele>578.48</ele>
        <time>2015-07-08T11:19:37Z</time>
      </trkpt>
      <trkpt lat="64.04757" lon="-19.0466">
        <ele>580.71</ele>
        <time>2015-07-08T11:19:51Z</time>
      </trkpt>
      <trkpt lat="64.04543" lon="-19.04809">
        <ele>583.14</ele>
        <time>2015-07-08T11:20:06Z</time>
      </trkpt>
      <trkpt lat="64.0439" lon="-19.0492">
        <ele>586.04</ele>
        <time>2015-07-08T11:20:18Z</time>
      </trkpt>
      <trkpt lat="64.0429" lon="-19.04984">
        <ele>589.05</ele>
        <time>2015-07-08T11:20:28Z</time>
      </trkpt>
      <trkpt lat="64.0416" lon="-19.05053">
        <ele>588.14</ele>
        <time>2015-07-08T11:20:43Z</time>
      </trkpt>
      <trkpt lat="64.04074" lon="-19.0505">
        <ele>587.11</ele>
        <time>2015-07-08T11:20:53Z</time>
      </trkpt>
      <trkpt lat="64.03982" lon="-19.04978">
        <ele>589.66</ele>
        <time>2015-07-08T11:21:03Z</time>
      </trkpt>
      <trkpt lat="64.03932" lon="-19.0493">
        <ele>593</ele>
        <time>2015-07-08T11:21:08Z</time>
      </trkpt>
      <trkpt lat="64.03883" lon="-19.04864">
        <ele>596.9</ele>
        <time>2015-07-08T11:21:13Z</time>
      </trkpt>
      <trkpt lat="64.03854" lon="-19.04818">
        <ele>600.53</ele>
        <time>2015-07-08T11:21:17Z</time>
      </trkpt>
      <trkpt lat="64.03812" lon="-19.04749">
        <ele>603.57</ele>
        <time>2015-07-08T11:21:23Z</time>
      </trkpt>
      <trkpt lat="64.03665" lon="-19.04512">
        <ele>604.67</ele>
        <time>2015-07-08T11:21:41Z</time>
      </trkpt>
      <trkpt lat="64.03503" lon="-19.04247">
        <ele>604.84</ele>
        <time>2015-07-08T11:22:01Z</time>
      </trkpt>
      <trkpt lat="64.03419" lon="-19.04133">
        <ele>603.49</ele>
        <time>2015-07-08T11:22:14Z</time>
      </trkpt>
      <trkpt lat="64.03388" lon="-19.04114">
        <ele>600.28</ele>
        <time>2015-07-08T11:22:20Z</time>
      </trkpt>
      <trkpt lat="64.03358" lon="-19.04098">
        <ele>596.65</ele>
        <time>2015-07-08T11:22:25Z</time>
      </trkpt>
      <trkpt lat="64.03336" lon="-19.04085">
        <ele>593.16</ele>
        <time>2015-07-08T11:22:29Z</time>
      </trkpt>
      <trkpt lat="64.03318" lon="-19.0407">
        <ele>589.81</ele>
        <time>2015-07-08T11:22:33Z</time>
      </trkpt>
      <trkpt lat="64.03313" lon="-19.04059">
        <ele>586.49</ele>
        <time>2015-07-08T11:22:38Z</time>
      </trkpt>
      <trkpt lat="64.03314" lon="-19.04063">
        <ele>584.53</ele>
        <time>2015-07-08T11:23:20Z</time>
      </trkpt>
      <trkpt lat="64.03316" lon="-19.04062">
        <ele>585.86</ele>
        <time>2015-07-08T11:24:09Z</time>
      </trkpt>
      <trkpt lat="64.03316" lon="-19.04061">
        <ele>584.34</ele>
        <time>2015-07-08T11:25:15Z</time>
      </trkpt>
      <trkpt lat="64.03313" lon="-19.04058">
        <ele>584.56</ele>
        <time>2015-07-08T11:26:02Z</time>
      </trkpt>
      <trkpt lat="64.03293" lon="-19.04053">
        <ele>584.56</ele>
        <time>2015-07-08T11:26:09Z</time>
      </trkpt>
      <trkpt lat="64.03231" lon="-19.03997">
        <ele>584.32</ele>
        <time>2015-07-08T11:26:19Z</time>
      </trkpt>
      <trkpt lat="64.03121" lon="-19.03866">
        <ele>584.29</ele>
        <time>2015-07-08T11:26:33Z</time>
      </trkpt>
      <trkpt lat="64.03027" lon="-19.03745">
        <ele>584.77</ele>
        <time>2015-07-08T11:26:45Z</time>
      </trkpt>
      <trkpt lat="64.0293" lon="-19.03628">
        <ele>584.7</ele>
        <time>2015-07-08T11:26:57Z</time>
      </trkpt>
      <trkpt lat="64.02896" lon="-19.03614">
        <ele>584.59</ele>
        <time>2015-07-08T11:27:01Z</time>
      </trkpt>
      <trkpt lat="64.02839" lon="-19.03642">
        <ele>584.63</ele>
        <time>2015-07-08T11:27:08Z</time>
      </trkpt>
      <trkpt lat="64.02805" lon="-19.0365">
        <ele>584.8</ele>
        <time>2015-07-08T11:27:12Z</time>
      </trkpt>
      <trkpt lat="64.02773" lon="-19.0364">
        <ele>584.7</ele>
        <time>2015-07-08T11:27:16Z</time>
      </trkpt>
      <trkpt lat="64.0274" lon="-19.03588">
        <ele>584.69</ele>
        <time>2015-07-08T11:27:22Z</time>
      </trkpt>
      <trkpt lat="64.02726" lon="-19.03535">
        <ele>585.18</ele>
        <time>2015-07-08T11:27:26Z</time>
      </trkpt>
      <trkpt lat="64.02707" lon="-19.03502">
        <ele>587.32</ele>
        <time>2015-07-08T11:27:31Z</time>
      </trkpt>
      <trkpt lat="64.0264" lon="-19.03442">
        <ele>585.82</ele>
        <time>2015-07-08T11:27:45Z</time>
      </trkpt>
      <trkpt lat="64.02631" lon="-19.03437">
        <ele>585.42</ele>
        <time>2015-07-08T11:27:55Z</time>
      </trkpt>
      <trkpt lat="64.02633" lon="-19.03437">
        <ele>585.78</ele>
        <time>2015-07-08T11:28:43Z</time>
      </trkpt>
      <trkpt lat="64.02633" lon="-19.03438">
        <ele>586.11</ele>
        <time>2015-07-08T11:29:45Z</time>
      </trkpt>
      <trkpt lat="64.02631" lon="-19.03437">
        <ele>585.88</ele>
        <time>2015-07-08T11:30:05Z</time>
      </trkpt>
      <trkpt lat="64.02629" lon="-19.03432">
        <ele>585.84</ele>
        <time>2015-07-08T11:30:07Z</time>
      </trkpt>
      <trkpt lat="64.02621" lon="-19.03422">
        <ele>585.72</ele>
        <time>2015-07-08T11:30:11Z</time>
      </trkpt>
      <trkpt lat="64.02554" lon="-19.0336">
        <ele>584.93</ele>
        <time>2015-07-08T11:30:25Z</time>
      </trkpt>
      <trkpt lat="64.02549" lon="-19.03355">
        <ele>584.9</ele>
        <time>2015-07-08T11:30:26Z</time>
      </trkpt>
      <trkpt lat="64.0251" lon="-19.03368">
        <ele>584.91</ele>
        <time>2015-07-08T11:30:34Z</time>
      </trkpt>
      <trkpt lat="64.02443" lon="-19.03456">
        <ele>585.08</ele>
        <time>2015-07-08T11:30:45Z</time>
      </trkpt>
      <trkpt lat="64.02346" lon="-19.03602">
        <ele>586.02</ele>
        <time>2015-07-08T11:30:57Z</time>
      </trkpt>
      <trkpt lat="64.02316" lon="-19.03635">
        <ele>585.25</ele>
        <time>2015-07-08T11:31:00Z</time>
      </trkpt>
      <trkpt lat="64.02247" lon="-19.03645">
        <ele>585.76</ele>
        <time>2015-07-08T11:31:06Z</time>
      </trkpt>
      <trkpt lat="64.02192" lon="-19.03631">
        <ele>589.14</ele>
        <time>2015-07-08T11:31:12Z</time>
      </trkpt>
      <trkpt lat="64.02141" lon="-19.03697">
        <ele>591.35</ele>
        <time>2015-07-08T11:31:20Z</time>
      </trkpt>
      <trkpt lat="64.02128" lon="-19.03869">
        <ele>591.34</ele>
        <time>2015-07-08T11:31:32Z</time>
      </trkpt>
      <trkpt lat="64.0211" lon="-19.04038">
        <ele>591.78</ele>
        <time>2015-07-08T11:31:42Z</time>
      </trkpt>
      <trkpt lat="64.02095" lon="-19.04097">
        <ele>591.79</ele>
        <time>2015-07-08T11:31:46Z</time>
      </trkpt>
      <trkpt lat="64.02012" lon="-19.04252">
        <ele>590.74</ele>
        <time>2015-07-08T11:32:00Z</time>
      </trkpt>
      <trkpt lat="64.01958" lon="-19.04322">
        <ele>590.5</ele>
        <time>2015-07-08T11:32:10Z</time>
      </trkpt>
      <trkpt lat="64.01924" lon="-19.04374">
        <ele>589.71</ele>
        <time>2015-07-08T11:32:24Z</time>
      </trkpt>
      <trkpt lat="64.01923" lon="-19.04373">
        <ele>589.33</ele>
        <time>2015-07-08T11:32:43Z</time>
      </trkpt>
      <trkpt lat="64.01923" lon="-19.04375">
        <ele>589.41</ele>
        <time>2015-07-08T11:32:53Z</time>
      </trkpt>
      <trkpt lat="64.0192" lon="-19.04382">
        <ele>589.41</ele>
        <time>2015-07-08T11:32:55Z</time>
      </trkpt>
      <trkpt lat="64.0189" lon="-19.04432">
        <ele>589.42</ele>
        <time>2015-07-08T11:33:09Z</time>
      </trkpt>
      <trkpt lat="64.0184" lon="-19.04502">
        <ele>590.18</ele>
        <time>2015-07-08T11:33:22Z</time>
      </trkpt>
      <trkpt lat="64.01769" lon="-19.04584">
        <ele>591.74</ele>
        <time>2015-07-08T11:33:36Z</time>
      </trkpt>
      <trkpt lat="64.01732" lon="-19.04633">
        <ele>592.22</ele>
        <time>2015-07-08T11:33:47Z</time>
      </trkpt>
      <trkpt lat="64.01732" lon="-19.04631">
        <ele>591.43</ele>
        <time>2015-07-08T11:34:19Z</time>
      </trkpt>
      <trkpt lat="64.0173" lon="-19.04631">
        <ele>591.71</ele>
        <time>2015-07-08T11:35:02Z</time>
      </trkpt>
      <trkpt lat="64.01726" lon="-19.04633">
        <ele>591.85</ele>
        <time>2015-07-08T11:35:04Z</time>
      </trkpt>
      <trkpt lat="64.01668" lon="-19.04685">
        <ele>593.3</ele>
        <time>2015-07-08T11:35:14Z</time>
      </trkpt>
      <trkpt lat="64.01617" lon="-19.04693">
        <ele>596.46</ele>
        <time>2015-07-08T11:35:20Z</time>
      </trkpt>
      <trkpt lat="64.01608" lon="-19.04692">
        <ele>596.97</ele>
        <time>2015-07-08T11:35:21Z</time>
      </trkpt>
      <trkpt lat="64.01571" lon="-19.04671">
        <ele>599.26</ele>
        <time>2015-07-08T11:35:25Z</time>
      </trkpt>
      <trkpt lat="64.01519" lon="-19.04617">
        <ele>603.15</ele>
        <time>2015-07-08T11:35:31Z</time>
      </trkpt>
      <trkpt lat="64.01485" lon="-19.04593">
        <ele>606.56</ele>
        <time>2015-07-08T11:35:35Z</time>
      </trkpt>
      <trkpt lat="64.01449" lon="-19.0458">
        <ele>610.41</ele>
        <time>2015-07-08T11:35:39Z</time>
      </trkpt>
      <trkpt lat="64.01431" lon="-19.04578">
        <ele>612.59</ele>
        <time>2015-07-08T11:35:41Z</time>
      </trkpt>
      <trkpt lat="64.01417" lon="-19.04578">
        <ele>616.26</ele>
        <time>2015-07-08T11:35:43Z</time>
      </trkpt>
      <trkpt lat="64.014" lon="-19.04582">
        <ele>620.4</ele>
        <time>2015-07-08T11:35:46Z</time>
      </trkpt>
      <trkpt lat="64.01392" lon="-19.04584">
        <ele>623.71</ele>
        <time>2015-07-08T11:35:49Z</time>
      </trkpt>
      <trkpt lat="64.0139" lon="-19.04583">
        <ele>626.47</ele>
        <time>2015-07-08T11:35:52Z</time>
      </trkpt>
      <trkpt lat="64.01386" lon="-19.04576">
        <ele>627.71</ele>
        <time>2015-07-08T11:35:54Z</time>
      </trkpt>
      <trkpt lat="64.01392" lon="-19.04529">
        <ele>628.76</ele>
        <time>2015-07-08T11:36:00Z</time>
      </trkpt>
      <trkpt lat="64.01406" lon="-19.04504">
        <ele>628.2</ele>
        <time>2015-07-08T11:36:03Z</time>
      </trkpt>
      <trkpt lat="64.01414" lon="-19.04485">
        <ele>627.26</ele>
        <time>2015-07-08T11:36:05Z</time>
      </trkpt>
      <trkpt lat="64.01418" lon="-19.0446">
        <ele>626.04</ele>
        <time>2015-07-08T11:36:07Z</time>
      </trkpt>
      <trkpt lat="64.01422" lon="-19.04418">
        <ele>623.04</ele>
        <time>2015-07-08T11:36:10Z</time>
      </trkpt>
      <trkpt lat="64.01414" lon="-19.0436">
        <ele>618.27</ele>
        <time>2015-07-08T11:36:15Z</time>
      </trkpt>
      <trkpt lat="64.01397" lon="-19.04326">
        <ele>614.37</ele>
        <time>2015-07-08T11:36:19Z</time>
      </trkpt>
      <trkpt lat="64.01385" lon="-19.04318">
        <ele>612.31</ele>
        <time>2015-07-08T11:36:21Z</time>
      </trkpt>
      <trkpt lat="64.01371" lon="-19.04313">
        <ele>610.33</ele>
        <time>2015-07-08T11:36:23Z</time>
      </trkpt>
      <trkpt lat="64.01338" lon="-19.04281">
        <ele>606</ele>
        <time>2015-07-08T11:36:28Z</time>
      </trkpt>
      <trkpt lat="64.01332" lon="-19.04274">
        <ele>605.28</ele>
        <time>2015-07-08T11:36:29Z</time>
      </trkpt>
      <trkpt lat="64.01315" lon="-19.04265">
        <ele>603.39</ele>
        <time>2015-07-08T11:36:33Z</time>
      </trkpt>
      <trkpt lat="64.01313" lon="-19.04263">
        <ele>603.03</ele>
        <time>2015-07-08T11:36:34Z</time>
      </trkpt>
      <trkpt lat="64.01292" lon="-19.04244">
        <ele>602.84</ele>
        <time>2015-07-08T11:36:42Z</time>
      </trkpt>
      <trkpt lat="64.01261" lon="-19.04241">
        <ele>604.68</ele>
        <time>2015-07-08T11:36:48Z</time>
      </trkpt>
      <trkpt lat="64.01238" lon="-19.0421">
        <ele>607.73</ele>
        <time>2015-07-08T11:36:54Z</time>
      </trkpt>
      <trkpt lat="64.01202" lon="-19.04145">
        <ele>608.65</ele>
        <time>2015-07-08T11:37:02Z</time>
      </trkpt>
      <trkpt lat="64.01135" lon="-19.04131">
        <ele>605.76</ele>
        <time>2015-07-08T11:37:11Z</time>
      </trkpt>
      <trkpt lat="64.01113" lon="-19.04135">
        <ele>604.47</ele>
        <time>2015-07-08T11:37:18Z</time>
      </trkpt>
      <trkpt lat="64.01093" lon="-19.04131">
        <ele>603.88</ele>
        <time>2015-07-08T11:37:23Z</time>
      </trkpt>
      <trkpt lat="64.01061" lon="-19.04149">
        <ele>602.94</ele>
        <time>2015-07-08T11:37:29Z</time>
      </trkpt>
      <trkpt lat="64.01042" lon="-19.04154">
        <ele>602.4</ele>
        <time>2015-07-08T11:37:33Z</time>
      </trkpt>
      <trkpt lat="64.01021" lon="-19.04173">
        <ele>602.1</ele>
        <time>2015-07-08T11:37:37Z</time>
      </trkpt>
      <trkpt lat="64.01009" lon="-19.04189">
        <ele>601.97</ele>
        <time>2015-07-08T11:37:39Z</time>
      </trkpt>
      <trkpt lat="64.00981" lon="-19.04206">
        <ele>601.86</ele>
        <time>2015-07-08T11:37:43Z</time>
      </trkpt>
      <trkpt lat="64.0097" lon="-19.04205">
        <ele>601.78</ele>
        <time>2015-07-08T11:37:45Z</time>
      </trkpt>
      <trkpt lat="64.00903" lon="-19.04197">
        <ele>601.31</ele>
        <time>2015-07-08T11:37:55Z</time>
      </trkpt>
      <trkpt lat="64.00863" lon="-19.04219">
        <ele>601.5</ele>
        <time>2015-07-08T11:38:01Z</time>
      </trkpt>
      <trkpt lat="64.00851" lon="-19.04221">
        <ele>601.6</ele>
        <time>2015-07-08T11:38:03Z</time>
      </trkpt>
      <trkpt lat="64.00817" lon="-19.04203">
        <ele>601.44</ele>
        <time>2015-07-08T11:38:08Z</time>
      </trkpt>
      <trkpt lat="64.00777" lon="-19.04193">
        <ele>600.99</ele>
        <time>2015-07-08T11:38:13Z</time>
      </trkpt>
      <trkpt lat="64.00754" lon="-19.04181">
        <ele>600.55</ele>
        <time>2015-07-08T11:38:16Z</time>
      </trkpt>
      <trkpt lat="64.00684" lon="-19.04091">
        <ele>599.84</ele>
        <time>2015-07-08T11:38:26Z</time>
      </trkpt>
      <trkpt lat="64.00629" lon="-19.03925">
        <ele>600.53</ele>
        <time>2015-07-08T11:38:37Z</time>
      </trkpt>
      <trkpt lat="64.00619" lon="-19.03899">
        <ele>600.37</ele>
        <time>2015-07-08T11:38:39Z</time>
      </trkpt>
      <trkpt lat="64.00602" lon="-19.03867">
        <ele>599.54</ele>
        <time>2015-07-08T11:38:46Z</time>
      </trkpt>
      <trkpt lat="64.00604" lon="-19.03866">
        <ele>599.04</ele>
        <time>2015-07-08T11:39:10Z</time>
      </trkpt>
      <trkpt lat="64.00601" lon="-19.03846">
        <ele>598.94</ele>
        <time>2015-07-08T11:39:13Z</time>
      </trkpt>
      <trkpt lat="64.00584" lon="-19.03758">
        <ele>598.61</ele>
        <time>2015-07-08T11:39:20Z</time>
      </trkpt>
      <trkpt lat="64.00565" lon="-19.03704">
        <ele>597.71</ele>
        <time>2015-07-08T11:39:29Z</time>
      </trkpt>
      <trkpt lat="64.00558" lon="-19.03683">
        <ele>597.31</ele>
        <time>2015-07-08T11:39:34Z</time>
      </trkpt>
      <trkpt lat="64.00533" lon="-19.03642">
        <ele>596.5</ele>
        <time>2015-07-08T11:39:42Z</time>
      </trkpt>
      <trkpt lat="64.00492" lon="-19.03622">
        <ele>593.58</ele>
        <time>2015-07-08T11:39:55Z</time>
      </trkpt>
      <trkpt lat="64.00472" lon="-19.03629">
        <ele>592.39</ele>
        <time>2015-07-08T11:40:07Z</time>
      </trkpt>
      <trkpt lat="64.00471" lon="-19.0363">
        <ele>592.38</ele>
        <time>2015-07-08T11:40:09Z</time>
      </trkpt>
      <trkpt lat="64.00466" lon="-19.03639">
        <ele>592.33</ele>
        <time>2015-07-08T11:40:12Z</time>
      </trkpt>
      <trkpt lat="64.00423" lon="-19.03752">
        <ele>592.98</ele>
        <time>2015-07-08T11:40:22Z</time>
      </trkpt>
      <trkpt lat="64.00345" lon="-19.03927">
        <ele>594.53</ele>
        <time>2015-07-08T11:40:33Z</time>
      </trkpt>
      <trkpt lat="64.00256" lon="-19.04176">
        <ele>596.22</ele>
        <time>2015-07-08T11:40:46Z</time>
      </trkpt>
      <trkpt lat="64.0023" lon="-19.04245">
        <ele>596.08</ele>
        <time>2015-07-08T11:40:50Z</time>
      </trkpt>
      <trkpt lat="64.00221" lon="-19.04307">
        <ele>595.17</ele>
        <time>2015-07-08T11:40:57Z</time>
      </trkpt>
      <trkpt lat="64.00215" lon="-19.04376">
        <ele>594.93</ele>
        <time>2015-07-08T11:41:06Z</time>
      </trkpt>
      <trkpt lat="64.00202" lon="-19.04487">
        <ele>597.93</ele>
        <time>2015-07-08T11:41:15Z</time>
      </trkpt>
      <trkpt lat="64.00195" lon="-19.04533">
        <ele>600.99</ele>
        <time>2015-07-08T11:41:25Z</time>
      </trkpt>
      <trkpt lat="64.00184" lon="-19.0459">
        <ele>601.82</ele>
        <time>2015-07-08T11:41:36Z</time>
      </trkpt>
      <trkpt lat="64.0017" lon="-19.04678">
        <ele>602.63</ele>
        <time>2015-07-08T11:41:46Z</time>
      </trkpt>
      <trkpt lat="64.00143" lon="-19.04829">
        <ele>605.75</ele>
        <time>2015-07-08T11:41:56Z</time>
      </trkpt>
      <trkpt lat="64.00128" lon="-19.04916">
        <ele>606.27</ele>
        <time>2015-07-08T11:42:06Z</time>
      </trkpt>
      <trkpt lat="64.00116" lon="-19.04963">
        <ele>605.44</ele>
        <time>2015-07-08T11:42:16Z</time>
      </trkpt>
      <trkpt lat="64.00116" lon="-19.04962">
        <ele>605.2</ele>
        <time>2015-07-08T11:42:21Z</time>
      </trkpt>
      <trkpt lat="64.00121" lon="-19.04958">
        <ele>605.06</ele>
        <time>2015-07-08T11:42:37Z</time>
      </trkpt>
      <trkpt lat="64.00119" lon="-19.04953">
        <ele>605.35</ele>
        <time>2015-07-08T11:43:11Z</time>
      </trkpt>
      <trkpt lat="64.00118" lon="-19.0495">
        <ele>605.75</ele>
        <time>2015-07-08T11:44:04Z</time>
      </trkpt>
      <trkpt lat="64.00121" lon="-19.04951">
        <ele>606.12</ele>
        <time>2015-07-08T11:44:53Z</time>
      </trkpt>
      <trkpt lat="64.00121" lon="-19.0495">
        <ele>606.34</ele>
        <time>2015-07-08T11:45:44Z</time>
      </trkpt>
      <trkpt lat="64.00119" lon="-19.04951">
        <ele>606.33</ele>
        <time>2015-07-08T11:45:49Z</time>
      </trkpt>
      <trkpt lat="64.00087" lon="-19.04986">
        <ele>607.15</ele>
        <time>2015-07-08T11:45:59Z</time>
      </trkpt>
      <trkpt lat="64.00028" lon="-19.05061">
        <ele>608.85</ele>
        <time>2015-07-08T11:46:11Z</time>
      </trkpt>
      <trkpt lat="63.99949" lon="-19.05117">
        <ele>608</ele>
        <time>2015-07-08T11:46:24Z</time>
      </trkpt>
      <trkpt lat="63.99891" lon="-19.05098">
        <ele>605.45</ele>
        <time>2015-07-08T11:46:35Z</time>
      </trkpt>
      <trkpt lat="63.99887" lon="-19.05095">
        <ele>605.1</ele>
        <time>2015-07-08T11:46:36Z</time>
      </trkpt>
      <trkpt lat="63.99863" lon="-19.05092">
        <ele>602.52</ele>
        <time>2015-07-08T11:46:41Z</time>
      </trkpt>
      <trkpt lat="63.99853" lon="-19.05099">
        <ele>598.86</ele>
        <time>2015-07-08T11:46:49Z</time>
      </trkpt>
      <trkpt lat="63.99846" lon="-19.05103">
        <ele>598.17</ele>
        <time>2015-07-08T11:46:53Z</time>
      </trkpt>
      <trkpt lat="63.99798" lon="-19.05156">
        <ele>598</ele>
        <time>2015-07-08T11:47:01Z</time>
      </trkpt>
      <trkpt lat="63.99779" lon="-19.05212">
        <ele>598.29</ele>
        <time>2015-07-08T11:47:05Z</time>
      </trkpt>
      <trkpt lat="63.99738" lon="-19.05386">
        <ele>601.64</ele>
        <time>2015-07-08T11:47:16Z</time>
      </trkpt>
      <trkpt lat="63.99735" lon="-19.05399">
        <ele>601.86</ele>
        <time>2015-07-08T11:47:17Z</time>
      </trkpt>
      <trkpt lat="63.99697" lon="-19.05589">
        <ele>602.23</ele>
        <time>2015-07-08T11:47:29Z</time>
      </trkpt>
      <trkpt lat="63.99636" lon="-19.05756">
        <ele>601.17</ele>
        <time>2015-07-08T11:47:40Z</time>
      </trkpt>
      <trkpt lat="63.99567" lon="-19.05913">
        <ele>599.44</ele>
        <time>2015-07-08T11:47:53Z</time>
      </trkpt>
      <trkpt lat="63.99541" lon="-19.05932">
        <ele>599.03</ele>
        <time>2015-07-08T11:48:01Z</time>
      </trkpt>
      <trkpt lat="63.99521" lon="-19.05947">
        <ele>599.09</ele>
        <time>2015-07-08T11:48:08Z</time>
      </trkpt>
      <trkpt lat="63.99511" lon="-19.05961">
        <ele>599.06</ele>
        <time>2015-07-08T11:48:22Z</time>
      </trkpt>
      <trkpt lat="63.99483" lon="-19.05972">
        <ele>599.14</ele>
        <time>2015-07-08T11:48:35Z</time>
      </trkpt>
      <trkpt lat="63.9946" lon="-19.05981">
        <ele>599.6</ele>
        <time>2015-07-08T11:48:48Z</time>
      </trkpt>
      <trkpt lat="63.99461" lon="-19.05983">
        <ele>599.68</ele>
        <time>2015-07-08T11:49:01Z</time>
      </trkpt>
      <trkpt lat="63.99463" lon="-19.06">
        <ele>599.73</ele>
        <time>2015-07-08T11:49:06Z</time>
      </trkpt>
      <trkpt lat="63.99466" lon="-19.06011">
        <ele>599.62</ele>
        <time>2015-07-08T11:49:21Z</time>
      </trkpt>
      <trkpt lat="63.99462" lon="-19.06014">
        <ele>600.15</ele>
        <time>2015-07-08T11:49:41Z</time>
      </trkpt>
      <trkpt lat="63.99455" lon="-19.06014">
        <ele>602.06</ele>
        <time>2015-07-08T11:49:57Z</time>
      </trkpt>
      <trkpt lat="63.99453" lon="-19.06008">
        <ele>603.23</ele>
        <time>2015-07-08T11:50:17Z</time>
      </trkpt>
      <trkpt lat="63.99454" lon="-19.0601">
        <ele>603.21</ele>
        <time>2015-07-08T11:50:19Z</time>
      </trkpt>
      <trkpt lat="63.99465" lon="-19.06008">
        <ele>602.07</ele>
        <time>2015-07-08T11:50:28Z</time>
      </trkpt>
      <trkpt lat="63.99465" lon="-19.06001">
        <ele>600.44</ele>
        <time>2015-07-08T11:50:42Z</time>
      </trkpt>
      <trkpt lat="63.99463" lon="-19.0599">
        <ele>600.7</ele>
        <time>2015-07-08T11:50:54Z</time>
      </trkpt>
      <trkpt lat="63.99467" lon="-19.05997">
        <ele>600.73</ele>
        <time>2015-07-08T11:50:57Z</time>
      </trkpt>
      <trkpt lat="63.9947" lon="-19.06005">
        <ele>600.43</ele>
        <time>2015-07-08T11:51:12Z</time>
      </trkpt>
      <trkpt lat="63.99469" lon="-19.05998">
        <ele>599.76</ele>
        <time>2015-07-08T11:52:11Z</time>
      </trkpt>
      <trkpt lat="63.99469" lon="-19.05997">
        <ele>600.01</ele>
        <time>2015-07-08T11:53:09Z</time>
      </trkpt>
      <trkpt lat="63.99472" lon="-19.05998">
        <ele>600.85</ele>
        <time>2015-07-08T11:53:25Z</time>
      </trkpt>
      <trkpt lat="63.99472" lon="-19.05998">
        <ele>600.87</ele>
        <time>2015-07-08T11:53:27Z</time>
      </trkpt>
    </trkseg>
  </trk>
</gpx>